Observation data for Boys Ranch on 08/20/2019      Previous  Date  Next       Current Mesonet Observations  Soil Data  Daily Summary Page  Observations in Plain Language
KBY1 200500Z 16002KT 24/16 A3005 RMK A01 T02390159  RH  061%=      5-min Rain = 0
KBY1 200501Z 17001KT 24/16 A3005 RMK A01 T02380158  RH  061%=      5-min Rain = 0
KBY1 200502Z 15002KT 24/16 A3005 RMK A01 T02380158  RH  061%=      5-min Rain = 0
KBY1 200503Z 13002KT 24/16 A3005 RMK A01 T02380160  RH  062%=      5-min Rain = 0
KBY1 200504Z 13002KT 24/16 A3005 RMK A01 T02380160  RH  062%=      5-min Rain = 0
KBY1 200505Z 11002KT 24/16 A3005 RMK A01 T02370160  RH  062%=      5-min Rain = 0
KBY1 200506Z 11003KT 24/16 A3005 RMK A01 T02360160  RH  062%=      5-min Rain = 0
KBY1 200507Z 11004KT 24/16 A3005 RMK A01 T02350160  RH  062%=      5-min Rain = 0
KBY1 200508Z 11004KT 24/16 A3005 RMK A01 T02350159  RH  062%=      5-min Rain = 0
KBY1 200509Z 11005KT 24/16 A3005 RMK A01 T02350160  RH  063%=      5-min Rain = 0
KBY1 200510Z 11005KT 24/16 A3005 RMK A01 T02350160  RH  063%=      5-min Rain = 0
KBY1 200511Z 11004KT 23/16 A3005 RMK A01 T02340159  RH  063%=      5-min Rain = 0
KBY1 200512Z 11003KT 23/16 A3005 RMK A01 T02340159  RH  063%=      5-min Rain = 0
KBY1 200513Z 12003KT 23/16 A3005 RMK A01 T02340158  RH  062%=      5-min Rain = 0
KBY1 200514Z 12003KT 23/16 A3005 RMK A01 T02340158  RH  062%=      5-min Rain = 0
KBY1 200515Z 12004KT 23/16 A3005 RMK A01 T02340157  RH  062%=      5-min Rain = 0
KBY1 200516Z 11004KT 23/16 A3005 RMK A01 T02340157  RH  062%=      5-min Rain = 0
KBY1 200517Z 11005KT 23/16 A3005 RMK A01 T02340157  RH  062%=      5-min Rain = 0
KBY1 200518Z 11005KT 23/16 A3005 RMK A01 T02340157  RH  062%=      5-min Rain = 0
KBY1 200519Z 10005KT 23/16 A3005 RMK A01 T02340158  RH  062%=      5-min Rain = 0
KBY1 200520Z 10006KT 23/16 A3005 RMK A01 T02330159  RH  063%=      5-min Rain = 0
KBY1 200521Z 11005KT 23/16 A3005 RMK A01 T02320159  RH  063%=      5-min Rain = 0
KBY1 200522Z 10006KT 23/16 A3005 RMK A01 T02320158  RH  063%=      5-min Rain = 0
KBY1 200523Z 11005KT 23/16 A3005 RMK A01 T02320158  RH  063%=      5-min Rain = 0
KBY1 200524Z 11005KT 23/16 A3005 RMK A01 T02320158  RH  063%=      5-min Rain = 0
KBY1 200525Z 11005KT 23/16 A3005 RMK A01 T02320158  RH  063%=      5-min Rain = 0
KBY1 200526Z 10005KT 23/16 A3005 RMK A01 T02320157  RH  063%=      5-min Rain = 0
KBY1 200527Z 10005KT 23/16 A3005 RMK A01 T02320158  RH  063%=      5-min Rain = 0
KBY1 200528Z 10005KT 23/16 A3005 RMK A01 T02320160  RH  064%=      5-min Rain = 0
KBY1 200529Z 10005KT 23/16 A3005 RMK A01 T02310159  RH  064%=      5-min Rain = 0
KBY1 200530Z 10005KT 23/16 A3005 RMK A01 T02320160  RH  064%=      5-min Rain = 0
KBY1 200531Z 10005KT 23/16 A3005 RMK A01 T02310159  RH  064%=      5-min Rain = 0
KBY1 200532Z 10005KT 23/16 A3005 RMK A01 T02320159  RH  064%=      5-min Rain = 0
KBY1 200533Z 10004KT 23/16 A3005 RMK A01 T02320158  RH  063%=      5-min Rain = 0
KBY1 200534Z 11004KT 23/16 A3005 RMK A01 T02320158  RH  063%=      5-min Rain = 0
KBY1 200535Z 10003KT 23/16 A3005 RMK A01 T02320157  RH  063%=      5-min Rain = 0
KBY1 200536Z 10003KT 23/16 A3005 RMK A01 T02320156  RH  062%=      5-min Rain = 0
KBY1 200537Z 10003KT 23/16 A3005 RMK A01 T02330156  RH  062%=      5-min Rain = 0
KBY1 200538Z 10003KT 23/16 A3005 RMK A01 T02340156  RH  062%=      5-min Rain = 0
KBY1 200539Z 10003KT 23/16 A3005 RMK A01 T02340155  RH  061%=      5-min Rain = 0
KBY1 200540Z 10003KT 24/16 A3005 RMK A01 T02350155  RH  061%=      5-min Rain = 0
KBY1 200541Z 10003KT 24/16 A3005 RMK A01 T02350156  RH  061%=      5-min Rain = 0
KBY1 200542Z 10003KT 24/16 A3005 RMK A01 T02360156  RH  061%=      5-min Rain = 0
KBY1 200543Z 10003KT 24/16 A3005 RMK A01 T02360156  RH  061%=      5-min Rain = 0
KBY1 200544Z 10003KT 24/16 A3005 RMK A01 T02360156  RH  061%=      5-min Rain = 0
KBY1 200545Z 10004KT 24/16 A3005 RMK A01 T02360157  RH  061%=      5-min Rain = 0
KBY1 200546Z 10004KT 24/16 A3005 RMK A01 T02360158  RH  062%=      5-min Rain = 0
KBY1 200547Z 09004KT 24/16 A3005 RMK A01 T02350162  RH  064%=      5-min Rain = 0
KBY1 200548Z 09005KT 23/17 A3005 RMK A01 T02340166  RH  065%=      5-min Rain = 0
KBY1 200549Z 09005KT 23/16 A3005 RMK A01 T02330164  RH  065%=      5-min Rain = 0
KBY1 200550Z 09006KT 23/16 A3005 RMK A01 T02330163  RH  065%=      5-min Rain = 0
KBY1 200551Z 09006KT 23/16 A3005 RMK A01 T02330160  RH  064%=      5-min Rain = 0
KBY1 200552Z 09007KT 23/16 A3005 RMK A01 T02330159  RH  063%=      5-min Rain = 0
KBY1 200553Z 09006KT 23/16 A3005 RMK A01 T02330158  RH  062%=      5-min Rain = 0
KBY1 200554Z 09007KT 23/16 A3005 RMK A01 T02340158  RH  062%=      5-min Rain = 0
KBY1 200555Z 09006KT 24/16 A3005 RMK A01 T02350159  RH  063%=      5-min Rain = 0
KBY1 200556Z 10006KT 24/16 A3005 RMK A01 T02360158  RH  062%=      5-min Rain = 0
KBY1 200557Z 09005KT 24/16 A3005 RMK A01 T02370156  RH  060%=      5-min Rain = 0
KBY1 200558Z 09005KT 24/16 A3005 RMK A01 T02390156  RH  060%=      5-min Rain = 0
KBY1 200559Z 09005KT 24/15 A3005 RMK A01 T02400154  RH  059%=      5-min Rain = 0
KBY1 200600Z 09004KT 24/15 A3005 RMK A01 T02410152  RH  058%=      5-min Rain = 0
KBY1 200601Z 09004KT 24/15 A3005 RMK A01 T02420152  RH  057%=      5-min Rain = 0
KBY1 200602Z 09003KT 24/15 A3005 RMK A01 T02430150  RH  056%=      5-min Rain = 0
KBY1 200603Z 09003KT 24/15 A3005 RMK A01 T02440150  RH  056%=      5-min Rain = 0
KBY1 200604Z 09003KT 24/15 A3005 RMK A01 T02440149  RH  055%=      5-min Rain = 0
KBY1 200605Z 09002KT 25/15 A3005 RMK A01 T02450149  RH  055%=      5-min Rain = 0
KBY1 200606Z 09002KT 25/15 A3005 RMK A01 T02450149  RH  055%=      5-min Rain = 0
KBY1 200607Z 09003KT 25/15 A3005 RMK A01 T02460148  RH  054%=      5-min Rain = 0
KBY1 200608Z 08004KT 25/15 A3005 RMK A01 T02470148  RH  054%=      5-min Rain = 0
KBY1 200609Z 08003KT 25/15 A3005 RMK A01 T02470148  RH  054%=      5-min Rain = 0
KBY1 200610Z 08004KT 25/15 A3005 RMK A01 T02480148  RH  054%=      5-min Rain = 0
KBY1 200611Z 08004KT 25/15 A3005 RMK A01 T02490149  RH  054%=      5-min Rain = 0
KBY1 200612Z 08003KT 25/15 A3005 RMK A01 T02490151  RH  054%=      5-min Rain = 0
KBY1 200613Z 08003KT 25/16 A3005 RMK A01 T02490155  RH  056%=      5-min Rain = 0
KBY1 200614Z 08003KT 25/15 A3005 RMK A01 T02490153  RH  055%=      5-min Rain = 0
KBY1 200615Z 07004KT 25/16 A3005 RMK A01 T02480155  RH  056%=      5-min Rain = 0
KBY1 200616Z 06004KT 25/15 A3005 RMK A01 T02480154  RH  056%=      5-min Rain = 0
KBY1 200617Z 07002KT 25/15 A3005 RMK A01 T02480150  RH  054%=      5-min Rain = 0
KBY1 200618Z 11002KT 25/16 A3005 RMK A01 T02480157  RH  057%=      5-min Rain = 0
KBY1 200619Z 09003KT 25/16 A3005 RMK A01 T02480155  RH  056%=      5-min Rain = 0
KBY1 200620Z 07003KT 25/15 A3005 RMK A01 T02470150  RH  055%=      5-min Rain = 0
KBY1 200621Z 07003KT 25/15 A3005 RMK A01 T02470147  RH  054%=      5-min Rain = 0
KBY1 200622Z 07004KT 25/15 A3005 RMK A01 T02490146  RH  053%=      5-min Rain = 0
KBY1 200623Z 07004KT 25/15 A3005 RMK A01 T02500150  RH  054%=      5-min Rain = 0
KBY1 200624Z 06004KT 25/15 A3005 RMK A01 T02500151  RH  054%=      5-min Rain = 0
KBY1 200625Z 06005KT 25/15 A3005 RMK A01 T02500151  RH  054%=      5-min Rain = 0
KBY1 200626Z 06005KT 25/15 A3005 RMK A01 T02500150  RH  054%=      5-min Rain = 0
KBY1 200627Z 05005KT 25/15 A3005 RMK A01 T02510149  RH  053%=      5-min Rain = 0
KBY1 200628Z 06005KT 25/15 A3005 RMK A01 T02510148  RH  053%=      5-min Rain = 0
KBY1 200629Z 07005KT 25/15 A3005 RMK A01 T02520146  RH  052%=      5-min Rain = 0
KBY1 200630Z 07005KT 25/14 A3005 RMK A01 T02540144  RH  051%=      5-min Rain = 0
KBY1 200631Z 08005KT 26/15 A3005 RMK A01 T02550146  RH  051%=      5-min Rain = 0
KBY1 200632Z 08004KT 26/15 A3005 RMK A01 T02550146  RH  051%=      5-min Rain = 0
KBY1 200633Z 07005KT 26/15 A3005 RMK A01 T02560147  RH  051%=      5-min Rain = 0
KBY1 200634Z 07004KT 26/15 A3005 RMK A01 T02550147  RH  051%=      5-min Rain = 0
KBY1 200635Z 06004KT 26/15 A3005 RMK A01 T02550145  RH  051%=      5-min Rain = 0
KBY1 200636Z 07003KT 26/14 A3005 RMK A01 T02550144  RH  050%=      5-min Rain = 0
KBY1 200637Z 07003KT 26/14 A3005 RMK A01 T02560143  RH  049%=      5-min Rain = 0
KBY1 200638Z 07003KT 26/14 A3005 RMK A01 T02570142  RH  049%=      5-min Rain = 0
KBY1 200639Z 07003KT 26/14 A3005 RMK A01 T02580142  RH  049%=      5-min Rain = 0
KBY1 200640Z 06003KT 26/14 A3005 RMK A01 T02590143  RH  049%=      5-min Rain = 0
KBY1 200641Z 06003KT 26/14 A3005 RMK A01 T02590143  RH  049%=      5-min Rain = 0
KBY1 200642Z 06003KT 26/14 A3005 RMK A01 T02590143  RH  049%=      5-min Rain = 0
KBY1 200643Z 07003KT 26/14 A3005 RMK A01 T02590141  RH  048%=      5-min Rain = 0
KBY1 200644Z 07003KT 26/14 A3005 RMK A01 T02590142  RH  048%=      5-min Rain = 0
KBY1 200645Z 08003KT 26/14 A3005 RMK A01 T02590144  RH  049%=      5-min Rain = 0
KBY1 200646Z 08003KT 26/14 A3005 RMK A01 T02590144  RH  049%=      5-min Rain = 0
KBY1 200647Z 07003KT 26/14 A3005 RMK A01 T02580143  RH  049%=      5-min Rain = 0
KBY1 200648Z 06002KT 26/14 A3005 RMK A01 T02580142  RH  049%=      5-min Rain = 0
KBY1 200649Z 06003KT 26/14 A3005 RMK A01 T02590143  RH  049%=      5-min Rain = 0
KBY1 200650Z 07004KT 26/14 A3005 RMK A01 T02580141  RH  048%=      5-min Rain = 0
KBY1 200651Z 07004KT 26/14 A3005 RMK A01 T02580140  RH  048%=      5-min Rain = 0
KBY1 200652Z 08004KT 26/14 A3005 RMK A01 T02600141  RH  048%=      5-min Rain = 0
KBY1 200653Z 08004KT 26/14 A3005 RMK A01 T02600143  RH  048%=      5-min Rain = 0
KBY1 200654Z 08005KT 26/14 A3005 RMK A01 T02600143  RH  048%=      5-min Rain = 0
KBY1 200655Z 08004KT 26/14 A3005 RMK A01 T02590142  RH  048%=      5-min Rain = 0
KBY1 200656Z 10005KT 26/14 A3005 RMK A01 T02590143  RH  049%=      5-min Rain = 0
KBY1 200657Z 11006KT 26/14 A3005 RMK A01 T02590143  RH  049%=      5-min Rain = 0
KBY1 200658Z 11007KT 26/14 A3005 RMK A01 T02590143  RH  049%=      5-min Rain = 0
KBY1 200659Z 11006KT 26/14 A3005 RMK A01 T02590139  RH  047%=      5-min Rain = 0
KBY1 200700Z 11005KT 26/14 A3005 RMK A01 T02600140  RH  047%=      5-min Rain = 0
KBY1 200701Z 11005KT 26/14 A3005 RMK A01 T02610139  RH  047%=      5-min Rain = 0
KBY1 200702Z 11005KT 26/14 A3005 RMK A01 T02620139  RH  046%=      5-min Rain = 0
KBY1 200703Z 10005KT 26/14 A3005 RMK A01 T02630140  RH  047%=      5-min Rain = 0
KBY1 200704Z 09005KT 26/14 A3005 RMK A01 T02620141  RH  047%=      5-min Rain = 0
KBY1 200705Z 08005KT 26/14 A3005 RMK A01 T02610141  RH  047%=      5-min Rain = 0
KBY1 200706Z 07005KT 26/14 A3005 RMK A01 T02610142  RH  048%=      5-min Rain = 0
KBY1 200707Z 06006KT 26/14 A3005 RMK A01 T02600142  RH  048%=      5-min Rain = 0
KBY1 200708Z 07006KT 26/14 A3005 RMK A01 T02590143  RH  049%=      5-min Rain = 0
KBY1 200709Z 08006KT 26/14 A3005 RMK A01 T02590144  RH  049%=      5-min Rain = 0
KBY1 200710Z 08006KT 26/14 A3005 RMK A01 T02580142  RH  049%=      5-min Rain = 0
KBY1 200711Z 09006KT 26/14 A3005 RMK A01 T02580142  RH  049%=      5-min Rain = 0
KBY1 200712Z 09005KT 26/14 A3005 RMK A01 T02590144  RH  049%=      5-min Rain = 0
KBY1 200713Z 10005KT 26/14 A3005 RMK A01 T02580144  RH  049%=      5-min Rain = 0
KBY1 200714Z 10005KT 26/15 A3005 RMK A01 T02570145  RH  050%=      5-min Rain = 0
KBY1 200715Z 10005KT 26/15 A3005 RMK A01 T02560145  RH  050%=      5-min Rain = 0
KBY1 200716Z 11005KT 26/15 A3005 RMK A01 T02550146  RH  051%=      5-min Rain = 0
KBY1 200717Z 11005KT 25/15 A3005 RMK A01 T02540147  RH  051%=      5-min Rain = 0
KBY1 200718Z 11006KT 25/15 A3005 RMK A01 T02530145  RH  051%=      5-min Rain = 0
KBY1 200719Z 11006KT 25/15 A3005 RMK A01 T02530145  RH  051%=      5-min Rain = 0
KBY1 200720Z 11005KT 25/14 A3005 RMK A01 T02530144  RH  051%=      5-min Rain = 0
KBY1 200721Z 11005KT 25/14 A3005 RMK A01 T02540144  RH  051%=      5-min Rain = 0
KBY1 200722Z 11006KT 25/15 A3005 RMK A01 T02540145  RH  051%=      5-min Rain = 0
KBY1 200723Z 10005KT 25/15 A3005 RMK A01 T02530145  RH  051%=      5-min Rain = 0
KBY1 200724Z 10005KT 25/15 A3005 RMK A01 T02530145  RH  051%=      5-min Rain = 0
KBY1 200725Z 11005KT 25/15 A3005 RMK A01 T02530145  RH  051%=      5-min Rain = 0
KBY1 200726Z 12005KT 25/15 A3005 RMK A01 T02530145  RH  051%=      5-min Rain = 0
KBY1 200727Z 14004KT 25/15 A3005 RMK A01 T02530145  RH  051%=      5-min Rain = 0
KBY1 200728Z 16003KT 25/14 A3005 RMK A01 T02530143  RH  051%=      5-min Rain = 0
KBY1 200729Z 17003KT 25/14 A3005 RMK A01 T02540142  RH  050%=      5-min Rain = 0
KBY1 200730Z 16004KT 26/14 A3005 RMK A01 T02550139  RH  049%=      5-min Rain = 0
KBY1 200731Z 14003KT 26/14 A3005 RMK A01 T02580138  RH  048%=      5-min Rain = 0
KBY1 200732Z 14003KT 26/14 A3005 RMK A01 T02610139  RH  047%=      5-min Rain = 0
KBY1 200733Z 14003KT 26/14 A3005 RMK A01 T02630139  RH  046%=      5-min Rain = 0
KBY1 200734Z 14004KT 26/14 A3005 RMK A01 T02640139  RH  046%=      5-min Rain = 0
KBY1 200735Z 13005KT 27/14 A3005 RMK A01 T02650139  RH  046%=      5-min Rain = 0
KBY1 200736Z 13005KT 27/14 A3005 RMK A01 T02650140  RH  046%=      5-min Rain = 0
KBY1 200737Z 13005KT 27/14 A3005 RMK A01 T02650141  RH  046%=      5-min Rain = 0
KBY1 200738Z 13006KT 27/14 A3005 RMK A01 T02650141  RH  046%=      5-min Rain = 0
KBY1 200739Z 13007KT 27/14 A3005 RMK A01 T02660140  RH  046%=      5-min Rain = 0
KBY1 200740Z 14007KT 27/14 A3005 RMK A01 T02680140  RH  045%=      5-min Rain = 0
KBY1 200741Z 13007KT 27/14 A3005 RMK A01 T02700140  RH  045%=      5-min Rain = 0
KBY1 200742Z 13007KT 27/14 A3005 RMK A01 T02710139  RH  044%=      5-min Rain = 0
KBY1 200743Z 13008KT 27/14 A3005 RMK A01 T02720139  RH  044%=      5-min Rain = 0
KBY1 200744Z 13008KT 27/14 A3005 RMK A01 T02730140  RH  044%=      5-min Rain = 0
KBY1 200745Z 14008KT 27/14 A3005 RMK A01 T02730139  RH  044%=      5-min Rain = 0
KBY1 200746Z 14008KT 27/14 A3005 RMK A01 T02740139  RH  044%=      5-min Rain = 0
KBY1 200747Z 13008KT 27/14 A3005 RMK A01 T02740138  RH  043%=      5-min Rain = 0
KBY1 200748Z 13007KT 27/14 A3005 RMK A01 T02740139  RH  043%=      5-min Rain = 0
KBY1 200749Z 12009KT 27/14 A3005 RMK A01 T02740139  RH  043%=      5-min Rain = 0
KBY1 200750Z 13007KT 28/14 A3005 RMK A01 T02750138  RH  043%=      5-min Rain = 0
KBY1 200751Z 13008KT 28/14 A3005 RMK A01 T02750138  RH  043%=      5-min Rain = 0
KBY1 200752Z 14008KT 28/14 A3005 RMK A01 T02760136  RH  042%=      5-min Rain = 0
KBY1 200753Z 13008KT 28/14 A3005 RMK A01 T02770136  RH  042%=      5-min Rain = 0
KBY1 200754Z 13008KT 28/14 A3005 RMK A01 T02780136  RH  042%=      5-min Rain = 0
KBY1 200755Z 13009KT 28/14 A3005 RMK A01 T02780136  RH  042%=      5-min Rain = 0
KBY1 200756Z 13008KT 28/14 A3005 RMK A01 T02780136  RH  042%=      5-min Rain = 0
KBY1 200757Z 13007KT 28/14 A3005 RMK A01 T02780136  RH  042%=      5-min Rain = 0
KBY1 200758Z 14007KT 28/14 A3005 RMK A01 T02780136  RH  042%=      5-min Rain = 0
KBY1 200759Z 13008KT 28/14 A3005 RMK A01 T02780137  RH  042%=      5-min Rain = 0
KBY1 200800Z 14007KT 28/14 A3005 RMK A01 T02780136  RH  042%=      5-min Rain = 0
KBY1 200801Z 13008KT 28/14 A3005 RMK A01 T02800137  RH  042%=      5-min Rain = 0
KBY1 200802Z 14008KT 28/14 A3005 RMK A01 T02800137  RH  041%=      5-min Rain = 0
KBY1 200803Z 13008KT 28/14 A3005 RMK A01 T02810136  RH  041%=      5-min Rain = 0
KBY1 200804Z 13008KT 28/14 A3005 RMK A01 T02820136  RH  041%=      5-min Rain = 0
KBY1 200805Z 12009KT 28/14 A3005 RMK A01 T02820136  RH  041%=      5-min Rain = 0
KBY1 200806Z 13007KT 28/14 A3005 RMK A01 T02830137  RH  041%=      5-min Rain = 0
KBY1 200807Z 13007KT 28/14 A3005 RMK A01 T02810138  RH  041%=      5-min Rain = 0
KBY1 200808Z 13007KT 28/14 A3005 RMK A01 T02800137  RH  041%=      5-min Rain = 0
KBY1 200809Z 13007KT 28/14 A3005 RMK A01 T02800137  RH  042%=      5-min Rain = 0
KBY1 200810Z 13006KT 28/14 A3005 RMK A01 T02790137  RH  042%=      5-min Rain = 0
KBY1 200811Z 13006KT 28/14 A3005 RMK A01 T02780137  RH  042%=      5-min Rain = 0
KBY1 200812Z 14005KT 28/14 A3005 RMK A01 T02770137  RH  042%=      5-min Rain = 0
KBY1 200813Z 15002KT 28/14 A3005 RMK A01 T02770138  RH  042%=      5-min Rain = 0
KBY1 200814Z 18006KT 28/14 A3005 RMK A01 T02760137  RH  042%=      5-min Rain = 0
KBY1 200815Z 17007KT 28/14 A3005 RMK A01 T02770139  RH  043%=      5-min Rain = 0
KBY1 200816Z 17006KT 28/14 A3005 RMK A01 T02800141  RH  042%=      5-min Rain = 0
KBY1 200817Z 17006KT 28/14 A3005 RMK A01 T02830141  RH  042%=      5-min Rain = 0
KBY1 200818Z 17004KT 28/14 A3005 RMK A01 T02840141  RH  041%=      5-min Rain = 0
KBY1 200819Z 18004KT 29/14 A3005 RMK A01 T02850142  RH  041%=      5-min Rain = 0
KBY1 200820Z 18005KT 29/14 A3005 RMK A01 T02850141  RH  041%=      5-min Rain = 0
KBY1 200821Z 17006KT 28/14 A3004 RMK A01 T02840141  RH  042%=      5-min Rain = 0
KBY1 200822Z 15004KT 29/14 A3004 RMK A01 T02850142  RH  042%=      5-min Rain = 0
KBY1 200823Z 17005KT 29/14 A3005 RMK A01 T02850141  RH  041%=      5-min Rain = 0
KBY1 200824Z 16006KT 29/14 A3004 RMK A01 T02860142  RH  042%=      5-min Rain = 0
KBY1 200825Z 16006KT 29/14 A3004 RMK A01 T02860143  RH  042%=      5-min Rain = 0
KBY1 200826Z 17009KT 29/14 A3004 RMK A01 T02880143  RH  041%=      5-min Rain = 0
KBY1 200827Z 18010KT 29/15 A3004 RMK A01 T02910145  RH  041%=      5-min Rain = 0
KBY1 200828Z 18008KT 29/15 A3004 RMK A01 T02930146  RH  041%=      5-min Rain = 0
KBY1 200829Z 18008KT 29/15 A3004 RMK A01 T02930146  RH  041%=      5-min Rain = 0
KBY1 200830Z 18008KT 29/15 A3005 RMK A01 T02940146  RH  040%=      5-min Rain = 0
KBY1 200831Z 18008KT 29/15 A3005 RMK A01 T02940146  RH  040%=      5-min Rain = 0
KBY1 200832Z 17012KT 29/15 A3004 RMK A01 T02940146  RH  040%=      5-min Rain = 0
KBY1 200833Z 17005KT 30/15 A3005 RMK A01 T02970146  RH  040%=      5-min Rain = 0
KBY1 200834Z 16005KT 30/15 A3004 RMK A01 T02980147  RH  040%=      5-min Rain = 0
KBY1 200835Z 16006KT 30/15 A3004 RMK A01 T02970147  RH  040%=      5-min Rain = 0
KBY1 200836Z 17010KT 30/15 A3004 RMK A01 T02970146  RH  040%=      5-min Rain = 0
KBY1 200837Z 17007KT 30/15 A3004 RMK A01 T02970147  RH  040%=      5-min Rain = 0
KBY1 200838Z 16006KT 30/15 A3004 RMK A01 T02970147  RH  040%=      5-min Rain = 0
KBY1 200839Z 17008KT 30/15 A3004 RMK A01 T02960147  RH  040%=      5-min Rain = 0
KBY1 200840Z 17005KT 30/15 A3004 RMK A01 T02960147  RH  040%=      5-min Rain = 0
KBY1 200841Z 16004KT 30/15 A3004 RMK A01 T02950147  RH  041%=      5-min Rain = 0
KBY1 200842Z 17003KT 29/15 A3004 RMK A01 T02940147  RH  041%=      5-min Rain = 0
KBY1 200843Z 17004KT 29/15 A3004 RMK A01 T02940147  RH  041%=      5-min Rain = 0
KBY1 200844Z 16006KT 29/15 A3004 RMK A01 T02930147  RH  041%=      5-min Rain = 0
KBY1 200845Z 19005KT 29/15 A3004 RMK A01 T02940147  RH  041%=      5-min Rain = 0
KBY1 200846Z 19006KT 29/15 A3004 RMK A01 T02940148  RH  041%=      5-min Rain = 0
KBY1 200847Z 19006KT 29/15 A3004 RMK A01 T02940147  RH  041%=      5-min Rain = 0
KBY1 200848Z 19005KT 30/15 A3004 RMK A01 T02950147  RH  041%=      5-min Rain = 0
KBY1 200849Z 19003KT 30/15 A3004 RMK A01 T02950148  RH  041%=      5-min Rain = 0
KBY1 200850Z 16002KT 30/15 A3004 RMK A01 T02950148  RH  041%=      5-min Rain = 0
KBY1 200851Z 22003KT 29/15 A3004 RMK A01 T02940148  RH  041%=      5-min Rain = 0
KBY1 200852Z 19004G9KT 29/15 A3004 RMK A01 T02930148  RH  041%=      5-min Rain = 0
KBY1 200853Z 19007KT 29/15 A3004 RMK A01 T02930149  RH  041%=      5-min Rain = 0
KBY1 200854Z 18008KT 29/15 A3004 RMK A01 T02930149  RH  042%=      5-min Rain = 0
KBY1 200855Z 19010KT 29/15 A3004 RMK A01 T02940150  RH  041%=      5-min Rain = 0
KBY1 200856Z 20013G19KT 30/15 A3004 RMK A01 T02950150  RH  041%=      5-min Rain = 0
KBY1 200857Z 20013G18KT 30/15 A3004 RMK A01 T02960150  RH  041%=      5-min Rain = 0
KBY1 200858Z 20010KT 30/15 A3004 RMK A01 T02970150  RH  041%=      5-min Rain = 0
KBY1 200859Z 21011KT 30/15 A3004 RMK A01 T02970150  RH  041%=      5-min Rain = 0
KBY1 200900Z 20013KT 30/15 A3004 RMK A01 T02970150  RH  041%=      5-min Rain = 0
KBY1 200901Z 20012G17KT 30/15 A3004 RMK A01 T02970151  RH  041%=      5-min Rain = 0
KBY1 200902Z 19011KT 30/15 A3004 RMK A01 T02970150  RH  041%=      5-min Rain = 0
KBY1 200903Z 19014KT 30/15 A3004 RMK A01 T02970151  RH  041%=      5-min Rain = 0
KBY1 200904Z 20014G21KT 30/15 A3004 RMK A01 T02970151  RH  041%=      5-min Rain = 0
KBY1 200905Z 20010KT 30/15 A3004 RMK A01 T02970151  RH  041%=      5-min Rain = 0
KBY1 200906Z 19010KT 30/15 A3004 RMK A01 T02970152  RH  041%=      5-min Rain = 0
KBY1 200907Z 20013G19KT 30/15 A3004 RMK A01 T02960151  RH  041%=      5-min Rain = 0
KBY1 200908Z 20011G18KT 30/15 A3004 RMK A01 T02970152  RH  041%=      5-min Rain = 0
KBY1 200909Z 19017G22KT 30/15 A3004 RMK A01 T02970151  RH  041%=      5-min Rain = 0
KBY1 200910Z 19011G17KT 30/15 A3004 RMK A01 T02970151  RH  041%=      5-min Rain = 0
KBY1 200911Z 19015G20KT 30/15 A3004 RMK A01 T02970151  RH  041%=      5-min Rain = 0
KBY1 200912Z 20015G20KT 30/15 A3004 RMK A01 T02970152  RH  041%=      5-min Rain = 0
KBY1 200913Z 20016KT 30/15 A3004 RMK A01 T02970152  RH  041%=      5-min Rain = 0
KBY1 200914Z 19015G21KT 30/15 A3004 RMK A01 T02980152  RH  041%=      5-min Rain = 0
KBY1 200915Z 19021G26KT 30/15 A3003 RMK A01 T02980151  RH  041%=      5-min Rain = 0
KBY1 200916Z 20019G24KT 30/15 A3003 RMK A01 T02990152  RH  041%=      5-min Rain = 0
KBY1 200917Z 19020KT 30/15 A3003 RMK A01 T02990152  RH  041%=      5-min Rain = 0
KBY1 200918Z 20015G20KT 30/15 A3003 RMK A01 T02990152  RH  041%=      5-min Rain = 0
KBY1 200919Z 20014G20KT 30/15 A3003 RMK A01 T02980152  RH  041%=      5-min Rain = 0
KBY1 200920Z 20017KT 30/15 A3003 RMK A01 T02970152  RH  041%=      5-min Rain = 0
KBY1 200921Z 20015KT 30/15 A3003 RMK A01 T02970152  RH  041%=      5-min Rain = 0
KBY1 200922Z 20015KT 30/15 A3003 RMK A01 T02970152  RH  041%=      5-min Rain = 0
KBY1 200923Z 21014G22KT 30/15 A3003 RMK A01 T02970152  RH  041%=      5-min Rain = 0
KBY1 200924Z 20013G18KT 30/15 A3004 RMK A01 T02970152  RH  041%=      5-min Rain = 0
KBY1 200925Z 20016KT 30/15 A3003 RMK A01 T02960152  RH  042%=      5-min Rain = 0
KBY1 200926Z 19015G22KT 30/15 A3004 RMK A01 T02960152  RH  042%=      5-min Rain = 0
KBY1 200927Z 20016G21KT 30/15 A3004 RMK A01 T02950152  RH  042%=      5-min Rain = 0
KBY1 200928Z 19018KT 30/15 A3003 RMK A01 T02960152  RH  042%=      5-min Rain = 0
KBY1 200929Z 20014G20KT 30/15 A3004 RMK A01 T02960151  RH  042%=      5-min Rain = 0
KBY1 200930Z 19016G21KT 30/15 A3004 RMK A01 T02960152  RH  042%=      5-min Rain = 0
KBY1 200931Z 20018KT 30/15 A3004 RMK A01 T02950151  RH  042%=      5-min Rain = 0
KBY1 200932Z 20018KT 30/15 A3004 RMK A01 T02960151  RH  042%=      5-min Rain = 0
KBY1 200933Z 19018KT 30/15 A3004 RMK A01 T02960151  RH  041%=      5-min Rain = 0
KBY1 200934Z 19018KT 30/15 A3004 RMK A01 T02960151  RH  041%=      5-min Rain = 0
KBY1 200935Z 19014KT 30/15 A3004 RMK A01 T02960151  RH  041%=      5-min Rain = 0
KBY1 200936Z 19016G24KT 30/15 A3004 RMK A01 T02960152  RH  042%=      5-min Rain = 0
KBY1 200937Z 20012KT 30/15 A3004 RMK A01 T02960152  RH  042%=      5-min Rain = 0
KBY1 200938Z 19016KT 30/15 A3004 RMK A01 T02950152  RH  042%=      5-min Rain = 0
KBY1 200939Z 19015KT 30/15 A3004 RMK A01 T02950152  RH  042%=      5-min Rain = 0
KBY1 200940Z 19016KT 30/15 A3004 RMK A01 T02950151  RH  042%=      5-min Rain = 0
KBY1 200941Z 19016G25KT 30/15 A3004 RMK A01 T02960151  RH  041%=      5-min Rain = 0
KBY1 200942Z 19017G23KT 30/15 A3004 RMK A01 T02950151  RH  042%=      5-min Rain = 0
KBY1 200943Z 18019KT 30/15 A3004 RMK A01 T02960152  RH  042%=      5-min Rain = 0
KBY1 200944Z 19016KT 30/15 A3004 RMK A01 T02960152  RH  042%=      5-min Rain = 0
KBY1 200945Z 19016G24KT 30/15 A3004 RMK A01 T02950152  RH  042%=      5-min Rain = 0
KBY1 200946Z 19018G26KT 29/15 A3004 RMK A01 T02940152  RH  042%=      5-min Rain = 0
KBY1 200947Z 19015KT 30/15 A3004 RMK A01 T02950152  RH  042%=      5-min Rain = 0
KBY1 200948Z 19016G22KT 30/15 A3004 RMK A01 T02950152  RH  042%=      5-min Rain = 0
KBY1 200949Z 19015KT 29/15 A3004 RMK A01 T02940152  RH  042%=      5-min Rain = 0
KBY1 200950Z 19015KT 29/15 A3004 RMK A01 T02940152  RH  042%=      5-min Rain = 0
KBY1 200951Z 19014KT 29/15 A3004 RMK A01 T02940152  RH  042%=      5-min Rain = 0
KBY1 200952Z 19014G19KT 29/15 A3004 RMK A01 T02940152  RH  042%=      5-min Rain = 0
KBY1 200953Z 19013KT 29/15 A3004 RMK A01 T02930152  RH  042%=      5-min Rain = 0
KBY1 200954Z 19013G18KT 29/15 A3004 RMK A01 T02930152  RH  042%=      5-min Rain = 0
KBY1 200955Z 19015G21KT 29/15 A3004 RMK A01 T02920152  RH  043%=      5-min Rain = 0
KBY1 200956Z 19017KT 29/15 A3004 RMK A01 T02930152  RH  043%=      5-min Rain = 0
KBY1 200957Z 19017KT 29/15 A3004 RMK A01 T02920152  RH  042%=      5-min Rain = 0
KBY1 200958Z 19016KT 29/15 A3004 RMK A01 T02930152  RH  042%=      5-min Rain = 0
KBY1 200959Z 19013G19KT 29/15 A3004 RMK A01 T02930152  RH  042%=      5-min Rain = 0
KBY1 201000Z 19012KT 29/15 A3004 RMK A01 T02930152  RH  042%=      5-min Rain = 0
KBY1 201001Z 20017G22KT 29/15 A3004 RMK A01 T02930152  RH  042%=      5-min Rain = 0
KBY1 201002Z 20016G21KT 29/15 A3004 RMK A01 T02930152  RH  042%=      5-min Rain = 0
KBY1 201003Z 20021G26KT 29/15 A3004 RMK A01 T02930152  RH  042%=      5-min Rain = 0
KBY1 201004Z 20015KT 29/15 A3004 RMK A01 T02940152  RH  042%=      5-min Rain = 0
KBY1 201005Z 20014KT 29/15 A3004 RMK A01 T02940152  RH  042%=      5-min Rain = 0
KBY1 201006Z 20015G20KT 29/15 A3004 RMK A01 T02930152  RH  042%=      5-min Rain = 0
KBY1 201007Z 20018KT 29/15 A3004 RMK A01 T02920152  RH  042%=      5-min Rain = 0
KBY1 201008Z 20017G22KT 29/15 A3004 RMK A01 T02920152  RH  042%=      5-min Rain = 0
KBY1 201009Z 19018KT 29/15 A3004 RMK A01 T02920152  RH  042%=      5-min Rain = 0
KBY1 201010Z 20013G19KT 29/15 A3004 RMK A01 T02920152  RH  042%=      5-min Rain = 0
KBY1 201011Z 19013KT 29/15 A3004 RMK A01 T02920152  RH  043%=      5-min Rain = 0
KBY1 201012Z 19017KT 29/15 A3004 RMK A01 T02920152  RH  043%=      5-min Rain = 0
KBY1 201013Z 19014KT 29/15 A3004 RMK A01 T02920152  RH  043%=      5-min Rain = 0
KBY1 201014Z 19014G20KT 29/15 A3004 RMK A01 T02920152  RH  043%=      5-min Rain = 0
KBY1 201015Z 19015KT 29/15 A3004 RMK A01 T02920152  RH  042%=      5-min Rain = 0
KBY1 201016Z 20012KT 29/15 A3004 RMK A01 T02920152  RH  043%=      5-min Rain = 0
KBY1 201017Z 20014G19KT 29/15 A3004 RMK A01 T02920152  RH  043%=      5-min Rain = 0
KBY1 201018Z 19016KT 29/15 A3004 RMK A01 T02920151  RH  042%=      5-min Rain = 0
KBY1 201019Z 20014KT 29/15 A3004 RMK A01 T02920152  RH  042%=      5-min Rain = 0
KBY1 201020Z 19013KT 29/15 A3004 RMK A01 T02920152  RH  043%=      5-min Rain = 0
KBY1 201021Z 20014KT 29/15 A3004 RMK A01 T02920152  RH  043%=      5-min Rain = 0
KBY1 201022Z 20016G22KT 29/15 A3004 RMK A01 T02910151  RH  042%=      5-min Rain = 0
KBY1 201023Z 20016KT 29/15 A3004 RMK A01 T02920151  RH  042%=      5-min Rain = 0
KBY1 201024Z 20016KT 29/15 A3004 RMK A01 T02920151  RH  042%=      5-min Rain = 0
KBY1 201025Z 20013KT 29/15 A3004 RMK A01 T02920151  RH  042%=      5-min Rain = 0
KBY1 201026Z 20014KT 29/15 A3005 RMK A01 T02920151  RH  042%=      5-min Rain = 0
KBY1 201027Z 20013KT 29/15 A3005 RMK A01 T02920151  RH  042%=      5-min Rain = 0
KBY1 201028Z 20013KT 29/15 A3005 RMK A01 T02920151  RH  042%=      5-min Rain = 0
KBY1 201029Z 20015KT 29/15 A3005 RMK A01 T02920151  RH  042%=      5-min Rain = 0
KBY1 201030Z 20015G20KT 29/15 A3005 RMK A01 T02920151  RH  042%=      5-min Rain = 0
KBY1 201031Z 20014G21KT 29/15 A3005 RMK A01 T02920150  RH  042%=      5-min Rain = 0
KBY1 201032Z 20014G19KT 29/15 A3005 RMK A01 T02920150  RH  042%=      5-min Rain = 0
KBY1 201033Z 21015KT 29/15 A3005 RMK A01 T02930150  RH  042%=      5-min Rain = 0
KBY1 201034Z 21017KT 29/15 A3005 RMK A01 T02930150  RH  042%=      5-min Rain = 0
KBY1 201035Z 21014G21KT 29/15 A3005 RMK A01 T02930150  RH  042%=      5-min Rain = 0
KBY1 201036Z 21013G18KT 29/15 A3005 RMK A01 T02930150  RH  042%=      5-min Rain = 0
KBY1 201037Z 21013KT 29/15 A3005 RMK A01 T02930151  RH  042%=      5-min Rain = 0
KBY1 201038Z 21016KT 29/15 A3005 RMK A01 T02920151  RH  042%=      5-min Rain = 0
KBY1 201039Z 21018KT 29/15 A3005 RMK A01 T02920151  RH  042%=      5-min Rain = 0
KBY1 201040Z 21014KT 29/15 A3005 RMK A01 T02920151  RH  042%=      5-min Rain = 0
KBY1 201041Z 21016KT 29/15 A3005 RMK A01 T02920151  RH  042%=      5-min Rain = 0
KBY1 201042Z 21014KT 29/15 A3005 RMK A01 T02920151  RH  042%=      5-min Rain = 0
KBY1 201043Z 21013KT 29/15 A3005 RMK A01 T02920152  RH  043%=      5-min Rain = 0
KBY1 201044Z 21012KT 29/15 A3005 RMK A01 T02910151  RH  043%=      5-min Rain = 0
KBY1 201045Z 21013KT 29/15 A3005 RMK A01 T02910152  RH  043%=      5-min Rain = 0
KBY1 201046Z 21014KT 29/15 A3005 RMK A01 T02900152  RH  043%=      5-min Rain = 0
KBY1 201047Z 21014KT 29/15 A3005 RMK A01 T02900152  RH  043%=      5-min Rain = 0
KBY1 201048Z 21013KT 29/15 A3006 RMK A01 T02900152  RH  043%=      5-min Rain = 0
KBY1 201049Z 21013G18KT 29/15 A3006 RMK A01 T02900152  RH  043%=      5-min Rain = 0
KBY1 201050Z 21011KT 29/15 A3006 RMK A01 T02900151  RH  043%=      5-min Rain = 0
KBY1 201051Z 21011KT 29/15 A3006 RMK A01 T02900152  RH  043%=      5-min Rain = 0
KBY1 201052Z 21010G15KT 29/15 A3006 RMK A01 T02900151  RH  043%=      5-min Rain = 0
KBY1 201053Z 22010KT 29/15 A3006 RMK A01 T02900151  RH  043%=      5-min Rain = 0
KBY1 201054Z 21008KT 29/15 A3006 RMK A01 T02900151  RH  043%=      5-min Rain = 0
KBY1 201055Z 21011KT 29/15 A3006 RMK A01 T02890151  RH  043%=      5-min Rain = 0
KBY1 201056Z 21010KT 29/15 A3006 RMK A01 T02890150  RH  043%=      5-min Rain = 0
KBY1 201057Z 21008KT 29/15 A3006 RMK A01 T02890150  RH  043%=      5-min Rain = 0
KBY1 201058Z 21008KT 29/15 A3006 RMK A01 T02890150  RH  043%=      5-min Rain = 0
KBY1 201059Z 22010KT 29/15 A3006 RMK A01 T02890150  RH  043%=      5-min Rain = 0
KBY1 201100Z 22008KT 29/15 A3006 RMK A01 T02890150  RH  043%=      5-min Rain = 0
KBY1 201101Z 22009KT 29/15 A3006 RMK A01 T02890150  RH  043%=      5-min Rain = 0
KBY1 201102Z 21009KT 29/15 A3006 RMK A01 T02890150  RH  043%=      5-min Rain = 0
KBY1 201103Z 21007KT 29/15 A3006 RMK A01 T02890150  RH  043%=      5-min Rain = 0
KBY1 201104Z 22010KT 29/15 A3006 RMK A01 T02880150  RH  043%=      5-min Rain = 0
KBY1 201105Z 21010KT 29/15 A3006 RMK A01 T02890151  RH  043%=      5-min Rain = 0
KBY1 201106Z 21009KT 29/15 A3006 RMK A01 T02890150  RH  043%=      5-min Rain = 0
KBY1 201107Z 22006KT 29/15 A3006 RMK A01 T02890151  RH  043%=      5-min Rain = 0
KBY1 201108Z 21011KT 29/15 A3006 RMK A01 T02880151  RH  043%=      5-min Rain = 0
KBY1 201109Z 21009G14KT 29/15 A3006 RMK A01 T02890151  RH  043%=      5-min Rain = 0
KBY1 201110Z 21007G12KT 29/15 A3006 RMK A01 T02880151  RH  043%=      5-min Rain = 0
KBY1 201111Z 20011KT 29/15 A3006 RMK A01 T02880151  RH  043%=      5-min Rain = 0
KBY1 201112Z 21009KT 29/15 A3006 RMK A01 T02870151  RH  044%=      5-min Rain = 0
KBY1 201113Z 21010KT 29/15 A3006 RMK A01 T02870151  RH  044%=      5-min Rain = 0
KBY1 201114Z 21011KT 29/15 A3006 RMK A01 T02870151  RH  044%=      5-min Rain = 0
KBY1 201115Z 21010KT 29/15 A3006 RMK A01 T02870151  RH  044%=      5-min Rain = 0
KBY1 201116Z 21010KT 29/15 A3006 RMK A01 T02870151  RH  044%=      5-min Rain = 0
KBY1 201117Z 20009KT 29/15 A3006 RMK A01 T02870152  RH  044%=      5-min Rain = 0
KBY1 201118Z 21009KT 29/15 A3007 RMK A01 T02870152  RH  044%=      5-min Rain = 0
KBY1 201119Z 21011KT 29/15 A3006 RMK A01 T02860152  RH  044%=      5-min Rain = 0
KBY1 201120Z 21010KT 29/15 A3007 RMK A01 T02860152  RH  044%=      5-min Rain = 0
KBY1 201121Z 21010KT 29/15 A3006 RMK A01 T02860152  RH  044%=      5-min Rain = 0
KBY1 201122Z 21009KT 29/15 A3007 RMK A01 T02860152  RH  044%=      5-min Rain = 0
KBY1 201123Z 21010KT 29/15 A3007 RMK A01 T02860152  RH  044%=      5-min Rain = 0
KBY1 201124Z 22010KT 29/15 A3007 RMK A01 T02860152  RH  044%=      5-min Rain = 0
KBY1 201125Z 21007KT 29/15 A3007 RMK A01 T02860152  RH  044%=      5-min Rain = 0
KBY1 201126Z 22007KT 29/15 A3007 RMK A01 T02850152  RH  044%=      5-min Rain = 0
KBY1 201127Z 22008KT 29/15 A3007 RMK A01 T02850153  RH  045%=      5-min Rain = 0
KBY1 201128Z 21008KT 28/15 A3007 RMK A01 T02840152  RH  045%=      5-min Rain = 0
KBY1 201129Z 21009KT 28/15 A3007 RMK A01 T02840153  RH  045%=      5-min Rain = 0
KBY1 201130Z 22009KT 28/15 A3007 RMK A01 T02840152  RH  045%=      5-min Rain = 0
KBY1 201131Z 22010KT 28/15 A3007 RMK A01 T02840152  RH  045%=      5-min Rain = 0
KBY1 201132Z 21008KT 28/15 A3007 RMK A01 T02840152  RH  045%=      5-min Rain = 0
KBY1 201133Z 23010KT 28/15 A3007 RMK A01 T02840151  RH  044%=      5-min Rain = 0
KBY1 201134Z 22011KT 28/15 A3007 RMK A01 T02840151  RH  044%=      5-min Rain = 0
KBY1 201135Z 23009KT 29/15 A3007 RMK A01 T02850151  RH  044%=      5-min Rain = 0
KBY1 201136Z 22008KT 29/15 A3007 RMK A01 T02850151  RH  044%=      5-min Rain = 0
KBY1 201137Z 22008KT 29/15 A3007 RMK A01 T02850151  RH  044%=      5-min Rain = 0
KBY1 201138Z 22008KT 28/15 A3007 RMK A01 T02840151  RH  044%=      5-min Rain = 0
KBY1 201139Z 23008KT 28/15 A3007 RMK A01 T02840151  RH  044%=      5-min Rain = 0
KBY1 201140Z 23008KT 28/15 A3007 RMK A01 T02840151  RH  044%=      5-min Rain = 0
KBY1 201141Z 23008KT 28/15 A3007 RMK A01 T02840151  RH  044%=      5-min Rain = 0
KBY1 201142Z 23006KT 28/15 A3007 RMK A01 T02840151  RH  044%=      5-min Rain = 0
KBY1 201143Z 23008KT 28/15 A3007 RMK A01 T02840150  RH  044%=      5-min Rain = 0
KBY1 201144Z 24008KT 28/15 A3007 RMK A01 T02840151  RH  044%=      5-min Rain = 0
KBY1 201145Z 24006KT 28/15 A3007 RMK A01 T02840150  RH  044%=      5-min Rain = 0
KBY1 201146Z 25007KT 28/15 A3007 RMK A01 T02840150  RH  044%=      5-min Rain = 0
KBY1 201147Z 25007KT 28/15 A3007 RMK A01 T02840151  RH  044%=      5-min Rain = 0
KBY1 201148Z 25007KT 28/15 A3007 RMK A01 T02840150  RH  044%=      5-min Rain = 0
KBY1 201149Z 25006KT 28/15 A3007 RMK A01 T02840151  RH  044%=      5-min Rain = 0
KBY1 201150Z 25007KT 28/15 A3007 RMK A01 T02840151  RH  044%=      5-min Rain = 0
KBY1 201151Z 25007KT 28/15 A3007 RMK A01 T02840150  RH  044%=      5-min Rain = 0
KBY1 201152Z 26007KT 28/15 A3007 RMK A01 T02840150  RH  044%=      5-min Rain = 0
KBY1 201153Z 25007KT 28/15 A3007 RMK A01 T02840150  RH  044%=      5-min Rain = 0
KBY1 201154Z 24007KT 28/15 A3007 RMK A01 T02830149  RH  044%=      5-min Rain = 0
KBY1 201155Z 23009KT 28/15 A3007 RMK A01 T02840149  RH  044%=      5-min Rain = 0
KBY1 201156Z 25007KT 28/15 A3007 RMK A01 T02840148  RH  044%=      5-min Rain = 0
KBY1 201157Z 24009KT 28/15 A3008 RMK A01 T02840148  RH  044%=      5-min Rain = 0
KBY1 201158Z 24007KT 28/15 A3008 RMK A01 T02840148  RH  043%=      5-min Rain = 0
KBY1 201159Z 25007KT 28/15 A3008 RMK A01 T02840148  RH  043%=      5-min Rain = 0
KBY1 201200Z 25009G14KT 28/15 A3008 RMK A01 T02840148  RH  043%=      5-min Rain = 0
KBY1 201201Z 24011KT 28/15 A3008 RMK A01 T02840148  RH  043%=      5-min Rain = 0
KBY1 201202Z 26006KT 29/15 A3008 RMK A01 T02850148  RH  043%=      5-min Rain = 0
KBY1 201203Z 24008KT 29/15 A3008 RMK A01 T02850148  RH  043%=      5-min Rain = 0
KBY1 201204Z 25006KT 29/15 A3008 RMK A01 T02850149  RH  043%=      5-min Rain = 0
KBY1 201205Z 25009KT 28/15 A3008 RMK A01 T02840149  RH  044%=      5-min Rain = 0
KBY1 201206Z 25007KT 28/15 A3008 RMK A01 T02840149  RH  044%=      5-min Rain = 0
KBY1 201207Z 26008KT 28/15 A3008 RMK A01 T02840150  RH  044%=      5-min Rain = 0
KBY1 201208Z 26006KT 28/15 A3008 RMK A01 T02840150  RH  044%=      5-min Rain = 0
KBY1 201209Z 26010G15KT 28/15 A3008 RMK A01 T02830151  RH  044%=      5-min Rain = 0
KBY1 201210Z 24010KT 28/15 A3008 RMK A01 T02830153  RH  045%=      5-min Rain = 0
KBY1 201211Z 26010KT 28/15 A3008 RMK A01 T02820154  RH  046%=      5-min Rain = 0
KBY1 201212Z 25011KT 28/16 A3008 RMK A01 T02800157  RH  047%=      5-min Rain = 0
KBY1 201213Z 25011KT 28/16 A3008 RMK A01 T02770160  RH  049%=      5-min Rain = 0
KBY1 201214Z 24011G17KT 27/16 A3008 RMK A01 T02730161  RH  050%=      5-min Rain = 0
KBY1 201215Z 24008G14KT 27/16 A3008 RMK A01 T02710161  RH  051%=      5-min Rain = 0
KBY1 201216Z 24013KT 27/16 A3008 RMK A01 T02710158  RH  050%=      5-min Rain = 0
KBY1 201217Z 23015G22KT 27/16 A3008 RMK A01 T02710156  RH  049%=      5-min Rain = 0
KBY1 201218Z 23016KT 27/15 A3008 RMK A01 T02730153  RH  048%=      5-min Rain = 0
KBY1 201219Z 22018KT 28/15 A3008 RMK A01 T02750150  RH  046%=      5-min Rain = 0
KBY1 201220Z 22018G23KT 28/15 A3007 RMK A01 T02770151  RH  046%=      5-min Rain = 0
KBY1 201221Z 22015KT 28/15 A3008 RMK A01 T02770151  RH  046%=      5-min Rain = 0
KBY1 201222Z 22016G23KT 28/15 A3008 RMK A01 T02750149  RH  046%=      5-min Rain = 0
KBY1 201223Z 22019G25KT 27/15 A3008 RMK A01 T02740148  RH  046%=      5-min Rain = 0
KBY1 201224Z 22020G26KT 27/15 A3008 RMK A01 T02730146  RH  046%=      5-min Rain = 0
KBY1 201225Z 22016G21KT 27/14 A3008 RMK A01 T02740144  RH  045%=      5-min Rain = 0
KBY1 201226Z 23016KT 28/15 A3008 RMK A01 T02750147  RH  046%=      5-min Rain = 0
KBY1 201227Z 22016G21KT 27/15 A3008 RMK A01 T02720152  RH  048%=      5-min Rain = 0
KBY1 201228Z 23015G20KT 27/16 A3008 RMK A01 T02650156  RH  051%=      5-min Rain = 0
KBY1 201229Z 24016KT 26/16 A3008 RMK A01 T02590158  RH  053%=      5-min Rain = 0
KBY1 201230Z 24015KT 25/16 A3008 RMK A01 T02540160  RH  056%=      5-min Rain = 0.01
KBY1 201231Z 24015KT 25/16 A3008 RMK A01 T02490160  RH  058%=      5-min Rain = 0
KBY1 201232Z 24014G19KT 25/16 A3008 RMK A01 T02460160  RH  059%=      5-min Rain = 0
KBY1 201233Z 23012KT 25/16 A3008 RMK A01 T02450157  RH  058%=      5-min Rain = 0
KBY1 201234Z 23013KT 24/16 A3008 RMK A01 T02440159  RH  059%=      5-min Rain = 0
KBY1 201235Z 24012KT 24/16 A3008 RMK A01 T02410159  RH  060%=      5-min Rain = 0
KBY1 201236Z 24013KT 24/16 A3008 RMK A01 T02390160  RH  061%=      5-min Rain = 0
KBY1 201237Z 24012KT 24/16 A3009 RMK A01 T02370159  RH  062%=      5-min Rain = 0
KBY1 201238Z 24012KT 24/16 A3009 RMK A01 T02360159  RH  062%=      5-min Rain = 0
KBY1 201239Z 24012KT 24/16 A3009 RMK A01 T02360160  RH  062%=      5-min Rain = 0
KBY1 201240Z 25014KT 23/16 A3009 RMK A01 T02340158  RH  062%=      5-min Rain = 0
KBY1 201241Z 24014KT 24/15 A3009 RMK A01 T02370148  RH  057%=      5-min Rain = 0
KBY1 201242Z 24014KT 25/15 A3009 RMK A01 T02450150  RH  055%=      5-min Rain = 0
KBY1 201243Z 25014KT 25/15 A3009 RMK A01 T02470153  RH  056%=      5-min Rain = 0
KBY1 201244Z 26014KT 25/15 A3009 RMK A01 T02450152  RH  056%=      5-min Rain = 0.01
KBY1 201245Z 25014KT 25/15 A3009 RMK A01 T02450148  RH  055%=      5-min Rain = 0
KBY1 201246Z 26015KT 25/15 A3009 RMK A01 T02470147  RH  054%=      5-min Rain = 0
KBY1 201247Z 27016KT 25/15 A3008 RMK A01 T02480147  RH  053%=      5-min Rain = 0
KBY1 201248Z 26012KT 25/15 A3009 RMK A01 T02480149  RH  054%=      5-min Rain = 0
KBY1 201249Z 25017G24KT 25/15 A3009 RMK A01 T02460145  RH  053%=      5-min Rain = 0
KBY1 201250Z 26018KT 25/14 A3009 RMK A01 T02500138  RH  050%=      5-min Rain = 0
KBY1 201251Z 25017KT 26/14 A3009 RMK A01 T02560136  RH  047%=      5-min Rain = 0
KBY1 201252Z 25019KT 26/14 A3009 RMK A01 T02590140  RH  048%=      5-min Rain = 0
KBY1 201253Z 26020KT 26/14 A3009 RMK A01 T02560141  RH  049%=      5-min Rain = 0.01
KBY1 201254Z 25018G23KT 25/14 A301 RMK A01 T02530144  RH  051%=      5-min Rain = 0
KBY1 201255Z 25018KT 25/14 A301 RMK A01 T02510141  RH  051%=      5-min Rain = 0
KBY1 201256Z 25015G21KT 25/15 A301 RMK A01 T02500147  RH  053%=      5-min Rain = 0
KBY1 201257Z 24020KT 25/15 A301 RMK A01 T02460149  RH  055%=      5-min Rain = 0
KBY1 201258Z 24017G23KT 25/15 A301 RMK A01 T02450148  RH  055%=      5-min Rain = 0.01
KBY1 201259Z 25013G18KT 24/16 A3011 RMK A01 T02440155  RH  058%=      5-min Rain = 0
KBY1 201300Z 24013KT 24/15 A3011 RMK A01 T02380152  RH  059%=      5-min Rain = 0.01
KBY1 201301Z 25014KT 23/16 A3012 RMK A01 T02310159  RH  063%=      5-min Rain = 0.01
KBY1 201302Z 25017G26KT 23/15 A3012 RMK A01 T02270151  RH  062%=      5-min Rain = 0.01
KBY1 201303Z 24027G34KT 24/14 A3011 RMK A01 T02350138  RH  055%=      5-min Rain = 0.01
KBY1 201304Z 24032G43KT 25/14 A3011 RMK A01 T02450135  RH  050%=      5-min Rain = 0
KBY1 201305Z 23033G40KT 25/14 A3011 RMK A01 T02500135  RH  049%=      5-min Rain = 0.01
KBY1 201306Z 23030G37KT 25/14 A3011 RMK A01 T02480139  RH  051%=      5-min Rain = 0.02
KBY1 201307Z 23032G42KT 25/13 A3011 RMK A01 T02450134  RH  050%=      5-min Rain = 0.01
KBY1 201308Z 23022G29KT 24/13 A3012 RMK A01 T02440132  RH  049%=      5-min Rain = 0.01
KBY1 201309Z 23021G32KT 24/13 A3012 RMK A01 T02440134  RH  050%=      5-min Rain = 0
KBY1 201310Z 21016G21KT 25/14 A3011 RMK A01 T02470136  RH  050%=      5-min Rain = 0.01
KBY1 201311Z 21019G26KT 25/14 A3011 RMK A01 T02460140  RH  052%=      5-min Rain = 0
KBY1 201312Z 20025G30KT 25/13 A301 RMK A01 T02490130  RH  048%=      5-min Rain = 0
KBY1 201313Z 21028KT 25/13 A3011 RMK A01 T02530132  RH  047%=      5-min Rain = 0
KBY1 201314Z 21021G27KT 26/12 A3011 RMK A01 T02610120  RH  042%=      5-min Rain = 0
KBY1 201315Z 21011KT 28/12 A3011 RMK A01 T02750120  RH  038%=      5-min Rain = 0.01
KBY1 201316Z 20012KT 28/13 A3011 RMK A01 T02770130  RH  040%=      5-min Rain = 0
KBY1 201317Z 18010KT 27/13 A3011 RMK A01 T02700134  RH  043%=      5-min Rain = 0
KBY1 201318Z 18006KT 27/13 A301 RMK A01 T02680132  RH  043%=      5-min Rain = 0.01
KBY1 201319Z 19004KT 27/13 A301 RMK A01 T02680131  RH  043%=      5-min Rain = 0
KBY1 201320Z 21004KT 27/12 A301 RMK A01 T02690123  RH  040%=      5-min Rain = 0
KBY1 201321Z 21004KT 27/12 A301 RMK A01 T02740122  RH  039%=      5-min Rain = 0
KBY1 201322Z 18003KT 28/13 A301 RMK A01 T02760133  RH  041%=      5-min Rain = 0
KBY1 201323Z 20010KT 27/14 A3011 RMK A01 T02720144  RH  046%=      5-min Rain = 0
KBY1 201324Z 20008KT 26/15 A3011 RMK A01 T02600149  RH  050%=      5-min Rain = 0.01
KBY1 201325Z 21005KT 25/15 A3011 RMK A01 T02500152  RH  054%=      5-min Rain = 0
KBY1 201326Z 25004KT 24/15 A3011 RMK A01 T02440152  RH  057%=      5-min Rain = 0
KBY1 201327Z 26007KT 24/15 A3011 RMK A01 T02400153  RH  058%=      5-min Rain = 0
KBY1 201328Z 26008KT 24/15 A3011 RMK A01 T02390149  RH  057%=      5-min Rain = 0
KBY1 201329Z 26009KT 24/15 A3011 RMK A01 T02410151  RH  057%=      5-min Rain = 0
KBY1 201330Z 26008KT 24/15 A3011 RMK A01 T02410150  RH  057%=      5-min Rain = 0
KBY1 201331Z 26008KT 24/15 A3011 RMK A01 T02410149  RH  057%=      5-min Rain = 0
KBY1 201332Z 27008KT 24/15 A3011 RMK A01 T02420148  RH  056%=      5-min Rain = 0
KBY1 201333Z 26007KT 24/15 A3011 RMK A01 T02430151  RH  057%=      5-min Rain = 0
KBY1 201334Z 26006KT 24/16 A3011 RMK A01 T02430158  RH  059%=      5-min Rain = 0
KBY1 201335Z 26002KT 24/16 A3011 RMK A01 T02400161  RH  061%=      5-min Rain = 0
KBY1 201336Z 19003KT 24/17 A3011 RMK A01 T02350165  RH  065%=      5-min Rain = 0
KBY1 201337Z 22003KT 23/17 A3012 RMK A01 T02310166  RH  067%=      5-min Rain = 0
KBY1 201338Z 27005KT 23/16 A3011 RMK A01 T02290164  RH  067%=      5-min Rain = 0
KBY1 201339Z 29008KT 23/16 A3012 RMK A01 T02270162  RH  067%=      5-min Rain = 0
KBY1 201340Z 28009KT 23/16 A3012 RMK A01 T02260162  RH  067%=      5-min Rain = 0
KBY1 201341Z 29010KT 23/16 A3012 RMK A01 T02250162  RH  068%=      5-min Rain = 0
KBY1 201342Z 29009KT 23/16 A3012 RMK A01 T02250163  RH  068%=      5-min Rain = 0
KBY1 201343Z 29009KT 23/16 A3012 RMK A01 T02250162  RH  068%=      5-min Rain = 0
KBY1 201344Z 29007KT 22/17 A3012 RMK A01 T02240165  RH  069%=      5-min Rain = 0
KBY1 201345Z 30007KT 22/17 A3011 RMK A01 T02230166  RH  070%=      5-min Rain = 0
KBY1 201346Z 29007KT 22/16 A3011 RMK A01 T02230164  RH  069%=      5-min Rain = 0
KBY1 201347Z 29007KT 22/16 A3011 RMK A01 T02240161  RH  068%=      5-min Rain = 0
KBY1 201348Z 29006KT 23/16 A3011 RMK A01 T02260162  RH  067%=      5-min Rain = 0
KBY1 201349Z 30006KT 23/16 A3011 RMK A01 T02270162  RH  067%=      5-min Rain = 0
KBY1 201350Z 30006KT 23/17 A3011 RMK A01 T02270166  RH  069%=      5-min Rain = 0
KBY1 201351Z 31006KT 23/17 A3011 RMK A01 T02260172  RH  071%=      5-min Rain = 0
KBY1 201352Z 30006KT 22/17 A3011 RMK A01 T02240172  RH  072%=      5-min Rain = 0
KBY1 201353Z 30006KT 22/17 A3011 RMK A01 T02230170  RH  072%=      5-min Rain = 0
KBY1 201354Z 30006KT 22/17 A3011 RMK A01 T02230169  RH  071%=      5-min Rain = 0
KBY1 201355Z 29006KT 22/17 A3011 RMK A01 T02240167  RH  070%=      5-min Rain = 0
KBY1 201356Z 29006KT 23/16 A3011 RMK A01 T02250163  RH  068%=      5-min Rain = 0
KBY1 201357Z 29006KT 23/16 A3011 RMK A01 T02290160  RH  065%=      5-min Rain = 0
KBY1 201358Z 29005KT 23/16 A3011 RMK A01 T02310161  RH  065%=      5-min Rain = 0
KBY1 201359Z 29005KT 23/16 A3011 RMK A01 T02320164  RH  066%=      5-min Rain = 0
KBY1 201400Z 30006KT 23/16 A3011 RMK A01 T02320162  RH  065%=      5-min Rain = 0
KBY1 201401Z 31007KT 23/16 A3011 RMK A01 T02320164  RH  065%=      5-min Rain = 0
KBY1 201402Z 31006KT 23/17 A3011 RMK A01 T02320168  RH  067%=      5-min Rain = 0
KBY1 201403Z 32006KT 23/17 A3011 RMK A01 T02320172  RH  069%=      5-min Rain = 0
KBY1 201404Z 32005KT 23/18 A3011 RMK A01 T02310176  RH  071%=      5-min Rain = 0
KBY1 201405Z 32004KT 23/17 A3011 RMK A01 T02300171  RH  069%=      5-min Rain = 0
KBY1 201406Z 32004KT 23/18 A3011 RMK A01 T02300175  RH  071%=      5-min Rain = 0
KBY1 201407Z 32004KT 23/17 A3011 RMK A01 T02300173  RH  070%=      5-min Rain = 0
KBY1 201408Z 32004KT 23/17 A3011 RMK A01 T02300171  RH  069%=      5-min Rain = 0
KBY1 201409Z 32004KT 23/17 A3011 RMK A01 T02310171  RH  069%=      5-min Rain = 0
KBY1 201410Z 31005KT 23/17 A3011 RMK A01 T02310173  RH  070%=      5-min Rain = 0
KBY1 201411Z 30004KT 23/17 A3011 RMK A01 T02330173  RH  069%=      5-min Rain = 0
KBY1 201412Z 32004KT 23/17 A3011 RMK A01 T02340169  RH  067%=      5-min Rain = 0
KBY1 201413Z 32002KT 24/17 A3011 RMK A01 T02350174  RH  068%=      5-min Rain = 0
KBY1 201414Z 32002KT 24/18 A3011 RMK A01 T02360176  RH  069%=      5-min Rain = 0
KBY1 201415Z 30002KT 24/17 A3011 RMK A01 T02360172  RH  067%=      5-min Rain = 0
KBY1 201416Z 29005G10KT 24/17 A3011 RMK A01 T02370171  RH  066%=      5-min Rain = 0
KBY1 201417Z 25006KT 24/15 A301 RMK A01 T02410152  RH  058%=      5-min Rain = 0
KBY1 201418Z 24004KT 25/16 A3011 RMK A01 T02500158  RH  057%=      5-min Rain = 0
KBY1 201419Z 22003KT 25/16 A3011 RMK A01 T02520163  RH  058%=      5-min Rain = 0
KBY1 201420Z 22004KT 25/16 A3011 RMK A01 T02530162  RH  057%=      5-min Rain = 0
KBY1 201421Z 28002KT 25/17 A301 RMK A01 T02530168  RH  059%=      5-min Rain = 0
KBY1 201422Z 31001KT 25/17 A301 RMK A01 T02520166  RH  059%=      5-min Rain = 0
KBY1 201423Z 28002KT 25/16 A301 RMK A01 T02510163  RH  058%=      5-min Rain = 0
KBY1 201424Z 35002KT 25/16 A301 RMK A01 T02510161  RH  057%=      5-min Rain = 0
KBY1 201425Z 36004KT 25/16 A3009 RMK A01 T02510159  RH  057%=      5-min Rain = 0
KBY1 201426Z 36003KT 25/15 A3009 RMK A01 T02530154  RH  054%=      5-min Rain = 0
KBY1 201427Z 29004KT 26/15 A301 RMK A01 T02550152  RH  053%=      5-min Rain = 0
KBY1 201428Z 29004KT 26/15 A301 RMK A01 T02580153  RH  052%=      5-min Rain = 0
KBY1 201429Z 32003KT 26/16 A301 RMK A01 T02590158  RH  054%=      5-min Rain = 0
KBY1 201430Z 30004KT 26/16 A301 RMK A01 T02600155  RH  052%=      5-min Rain = 0
KBY1 201431Z 27004KT 26/15 A301 RMK A01 T02600151  RH  051%=      5-min Rain = 0
KBY1 201432Z 25006KT 26/15 A301 RMK A01 T02610154  RH  051%=      5-min Rain = 0
KBY1 201433Z 28004KT 26/16 A301 RMK A01 T02610156  RH  052%=      5-min Rain = 0
KBY1 201434Z 34003KT 26/16 A301 RMK A01 T02600157  RH  053%=      5-min Rain = 0
KBY1 201435Z 30002KT 26/16 A301 RMK A01 T02590160  RH  054%=      5-min Rain = 0
KBY1 201436Z 32003KT 26/16 A301 RMK A01 T02580160  RH  055%=      5-min Rain = 0
KBY1 201437Z 31003KT 26/16 A301 RMK A01 T02570161  RH  055%=      5-min Rain = 0
KBY1 201438Z 30005KT 26/16 A3011 RMK A01 T02560164  RH  057%=      5-min Rain = 0
KBY1 201439Z 32006KT 26/17 A3011 RMK A01 T02550165  RH  057%=      5-min Rain = 0
KBY1 201440Z 31006KT 25/16 A301 RMK A01 T02540162  RH  057%=      5-min Rain = 0
KBY1 201441Z 30005KT 25/16 A301 RMK A01 T02530160  RH  056%=      5-min Rain = 0
KBY1 201442Z 29006KT 25/16 A3011 RMK A01 T02530161  RH  057%=      5-min Rain = 0
KBY1 201443Z 29006KT 25/16 A3011 RMK A01 T02520159  RH  056%=      5-min Rain = 0
KBY1 201444Z 30009KT 25/16 A3011 RMK A01 T02530159  RH  056%=      5-min Rain = 0
KBY1 201445Z 30009KT 25/16 A3011 RMK A01 T02520159  RH  056%=      5-min Rain = 0
KBY1 201446Z 29008G13KT 25/16 A3011 RMK A01 T02520161  RH  057%=      5-min Rain = 0
KBY1 201447Z 28008KT 25/16 A3011 RMK A01 T02530161  RH  057%=      5-min Rain = 0
KBY1 201448Z 28007KT 25/16 A3011 RMK A01 T02530161  RH  057%=      5-min Rain = 0
KBY1 201449Z 28006KT 25/16 A3011 RMK A01 T02530163  RH  057%=      5-min Rain = 0
KBY1 201450Z 28005KT 25/17 A3011 RMK A01 T02530165  RH  058%=      5-min Rain = 0
KBY1 201451Z 28005KT 25/17 A3011 RMK A01 T02530167  RH  059%=      5-min Rain = 0
KBY1 201452Z 28007KT 25/17 A3011 RMK A01 T02520167  RH  059%=      5-min Rain = 0
KBY1 201453Z 29007KT 25/17 A3011 RMK A01 T02520167  RH  059%=      5-min Rain = 0
KBY1 201454Z 28005KT 25/17 A3011 RMK A01 T02520169  RH  060%=      5-min Rain = 0
KBY1 201455Z 28006KT 25/17 A3011 RMK A01 T02520171  RH  061%=      5-min Rain = 0
KBY1 201456Z 28006KT 25/17 A3011 RMK A01 T02510170  RH  060%=      5-min Rain = 0
KBY1 201457Z 27006G11KT 25/17 A3011 RMK A01 T02520171  RH  061%=      5-min Rain = 0
KBY1 201458Z 27009KT 25/17 A3011 RMK A01 T02520169  RH  060%=      5-min Rain = 0
KBY1 201459Z 27008KT 25/17 A3011 RMK A01 T02540169  RH  059%=      5-min Rain = 0
KBY1 201500Z 27007KT 26/17 A301 RMK A01 T02550168  RH  058%=      5-min Rain = 0
KBY1 201501Z 27006KT 26/17 A3011 RMK A01 T02560169  RH  058%=      5-min Rain = 0
KBY1 201502Z 28006KT 26/17 A301 RMK A01 T02570168  RH  058%=      5-min Rain = 0
KBY1 201503Z 28005KT 26/17 A3011 RMK A01 T02580169  RH  058%=      5-min Rain = 0
KBY1 201504Z 28004KT 26/17 A3011 RMK A01 T02580168  RH  058%=      5-min Rain = 0
KBY1 201505Z 28005KT 26/17 A3011 RMK A01 T02590167  RH  057%=      5-min Rain = 0
KBY1 201506Z 27004KT 26/17 A3011 RMK A01 T02600166  RH  056%=      5-min Rain = 0
KBY1 201507Z 25005KT 26/17 A3011 RMK A01 T02610166  RH  056%=      5-min Rain = 0
KBY1 201508Z 15005KT 26/17 A3011 RMK A01 T02610169  RH  057%=      5-min Rain = 0
KBY1 201509Z 12009KT 26/18 A3012 RMK A01 T02600178  RH  061%=      5-min Rain = 0
KBY1 201510Z 12008G13KT 26/18 A3012 RMK A01 T02550181  RH  064%=      5-min Rain = 0
KBY1 201511Z 14014KT 25/17 A3012 RMK A01 T02520173  RH  062%=      5-min Rain = 0
KBY1 201512Z 14012KT 25/17 A3012 RMK A01 T02520167  RH  059%=      5-min Rain = 0
KBY1 201513Z 14006KT 26/17 A3013 RMK A01 T02560166  RH  058%=      5-min Rain = 0
KBY1 201514Z 15007KT 26/17 A3013 RMK A01 T02570167  RH  057%=      5-min Rain = 0
KBY1 201515Z 13007KT 26/17 A3013 RMK A01 T02590168  RH  057%=      5-min Rain = 0
KBY1 201516Z 14006KT 26/17 A3013 RMK A01 T02590174  RH  059%=      5-min Rain = 0
KBY1 201517Z 13006KT 26/18 A3013 RMK A01 T02580176  RH  061%=      5-min Rain = 0
KBY1 201518Z 15005KT 26/18 A3013 RMK A01 T02560175  RH  061%=      5-min Rain = 0
KBY1 201519Z 16003KT 26/18 A3013 RMK A01 T02550176  RH  061%=      5-min Rain = 0
KBY1 201520Z 24001KT 26/18 A3013 RMK A01 T02550176  RH  062%=      5-min Rain = 0
KBY1 201521Z 28002KT 26/18 A3013 RMK A01 T02550178  RH  063%=      5-min Rain = 0
KBY1 201522Z 30001KT 26/18 A3013 RMK A01 T02550180  RH  063%=      5-min Rain = 0
KBY1 201523Z 05002KT 26/18 A3014 RMK A01 T02550177  RH  062%=      5-min Rain = 0
KBY1 201524Z 08004KT 26/18 A3014 RMK A01 T02550178  RH  062%=      5-min Rain = 0
KBY1 201525Z 08005KT 26/18 A3014 RMK A01 T02550179  RH  063%=      5-min Rain = 0
KBY1 201526Z 09006KT 26/18 A3014 RMK A01 T02560179  RH  063%=      5-min Rain = 0
KBY1 201527Z 08004KT 26/17 A3014 RMK A01 T02570174  RH  060%=      5-min Rain = 0
KBY1 201528Z 08005KT 26/18 A3014 RMK A01 T02580175  RH  060%=      5-min Rain = 0
KBY1 201529Z 07005KT 26/17 A3014 RMK A01 T02590174  RH  059%=      5-min Rain = 0
KBY1 201530Z 07005KT 26/17 A3015 RMK A01 T02600174  RH  059%=      5-min Rain = 0
KBY1 201531Z 07005KT 26/18 A3015 RMK A01 T02610176  RH  059%=      5-min Rain = 0
KBY1 201532Z 05005KT 26/17 A3015 RMK A01 T02620174  RH  058%=      5-min Rain = 0
KBY1 201533Z 06006KT 26/17 A3015 RMK A01 T02630171  RH  057%=      5-min Rain = 0
KBY1 201534Z 06006KT 26/17 A3015 RMK A01 T02640170  RH  056%=      5-min Rain = 0
KBY1 201535Z 06005KT 27/17 A3014 RMK A01 T02650171  RH  056%=      5-min Rain = 0
KBY1 201536Z 05004KT 27/17 A3014 RMK A01 T02670169  RH  055%=      5-min Rain = 0
KBY1 201537Z 04004KT 27/17 A3014 RMK A01 T02690172  RH  055%=      5-min Rain = 0
KBY1 201538Z 06003KT 27/17 A3015 RMK A01 T02700167  RH  053%=      5-min Rain = 0
KBY1 201539Z 07003KT 27/17 A3015 RMK A01 T02710172  RH  055%=      5-min Rain = 0
KBY1 201540Z 08002KT 27/17 A3015 RMK A01 T02720172  RH  054%=      5-min Rain = 0
KBY1 201541Z 13001KT 27/18 A3015 RMK A01 T02740175  RH  055%=      5-min Rain = 0
KBY1 201542Z 21002KT 27/18 A3015 RMK A01 T02740184  RH  058%=      5-min Rain = 0
KBY1 201543Z 19003KT 27/18 A3015 RMK A01 T02740181  RH  057%=      5-min Rain = 0
KBY1 201544Z 17002KT 27/18 A3015 RMK A01 T02740183  RH  057%=      5-min Rain = 0
KBY1 201545Z 13003KT 27/18 A3015 RMK A01 T02740178  RH  056%=      5-min Rain = 0
KBY1 201546Z 10002KT 27/17 A3015 RMK A01 T02730169  RH  053%=      5-min Rain = 0
KBY1 201547Z 12002KT 27/16 A3015 RMK A01 T02740161  RH  050%=      5-min Rain = 0
KBY1 201548Z 13003KT 28/17 A3015 RMK A01 T02760166  RH  051%=      5-min Rain = 0
KBY1 201549Z 11003KT 28/16 A3014 RMK A01 T02770158  RH  048%=      5-min Rain = 0
KBY1 201550Z 12004KT 28/17 A3014 RMK A01 T02780165  RH  050%=      5-min Rain = 0
KBY1 201551Z 13003KT 28/17 A3014 RMK A01 T02790173  RH  053%=      5-min Rain = 0
KBY1 201552Z 09002KT 28/17 A3014 RMK A01 T02780167  RH  051%=      5-min Rain = 0
KBY1 201553Z 10003KT 28/17 A3014 RMK A01 T02770171  RH  052%=      5-min Rain = 0
KBY1 201554Z 10002KT 28/17 A3014 RMK A01 T02770170  RH  052%=      5-min Rain = 0
KBY1 201555Z 11002KT 28/17 A3014 RMK A01 T02770171  RH  053%=      5-min Rain = 0
KBY1 201556Z 11002KT 28/17 A3014 RMK A01 T02770172  RH  053%=      5-min Rain = 0
KBY1 201557Z 12002KT 28/17 A3014 RMK A01 T02770174  RH  053%=      5-min Rain = 0
KBY1 201558Z 13002KT 28/18 A3014 RMK A01 T02770177  RH  054%=      5-min Rain = 0
KBY1 201559Z 13001KT 28/18 A3014 RMK A01 T02770177  RH  054%=      5-min Rain = 0
KBY1 201600Z 12002KT 28/18 A3014 RMK A01 T02780177  RH  054%=      5-min Rain = 0
KBY1 201601Z 13002KT 28/17 A3014 RMK A01 T02780174  RH  053%=      5-min Rain = 0
KBY1 201602Z 15001KT 28/17 A3014 RMK A01 T02790174  RH  053%=      5-min Rain = 0
KBY1 201603Z 15003KT 28/18 A3014 RMK A01 T02790177  RH  054%=      5-min Rain = 0
KBY1 201604Z 14002KT 28/18 A3014 RMK A01 T02800175  RH  053%=      5-min Rain = 0
KBY1 201605Z 16002KT 28/17 A3014 RMK A01 T02810174  RH  052%=      5-min Rain = 0
KBY1 201606Z 16003KT 28/17 A3014 RMK A01 T02810172  RH  051%=      5-min Rain = 0
KBY1 201607Z 17002KT 28/17 A3014 RMK A01 T02820169  RH  050%=      5-min Rain = 0
KBY1 201608Z 17002KT 28/17 A3014 RMK A01 T02830173  RH  051%=      5-min Rain = 0
KBY1 201609Z 15002KT 28/17 A3014 RMK A01 T02840173  RH  051%=      5-min Rain = 0
KBY1 201610Z 18001KT 29/17 A3014 RMK A01 T02850173  RH  051%=      5-min Rain = 0
KBY1 201611Z 18003KT 28/17 A3014 RMK A01 T02840174  RH  051%=      5-min Rain = 0
KBY1 201612Z 18002KT 29/17 A3014 RMK A01 T02850168  RH  049%=      5-min Rain = 0
KBY1 201613Z 18001KT 29/17 A3014 RMK A01 T02850171  RH  050%=      5-min Rain = 0
KBY1 201614Z 20003KT 29/17 A3014 RMK A01 T02860170  RH  050%=      5-min Rain = 0
KBY1 201615Z 21004KT 29/16 A3014 RMK A01 T02870161  RH  047%=      5-min Rain = 0
KBY1 201616Z 21005KT 29/16 A3014 RMK A01 T02880159  RH  045%=      5-min Rain = 0
KBY1 201617Z 21004KT 29/16 A3014 RMK A01 T02890162  RH  046%=      5-min Rain = 0
KBY1 201618Z 22004KT 29/17 A3014 RMK A01 T02890167  RH  048%=      5-min Rain = 0
KBY1 201619Z 22003KT 29/17 A3014 RMK A01 T02900170  RH  048%=      5-min Rain = 0
KBY1 201620Z 22003KT 29/18 A3014 RMK A01 T02900177  RH  051%=      5-min Rain = 0
KBY1 201621Z 21004KT 29/17 A3014 RMK A01 T02900172  RH  049%=      5-min Rain = 0
KBY1 201622Z 21005KT 29/16 A3014 RMK A01 T02900163  RH  046%=      5-min Rain = 0
KBY1 201623Z 22004KT 29/16 A3014 RMK A01 T02900164  RH  046%=      5-min Rain = 0
KBY1 201624Z 22003KT 29/17 A3014 RMK A01 T02900167  RH  047%=      5-min Rain = 0
KBY1 201625Z 21004KT 29/16 A3014 RMK A01 T02910163  RH  046%=      5-min Rain = 0
KBY1 201626Z 21003KT 29/17 A3014 RMK A01 T02920166  RH  046%=      5-min Rain = 0
KBY1 201627Z 23004KT 29/17 A3014 RMK A01 T02930167  RH  047%=      5-min Rain = 0
KBY1 201628Z 22006KT 30/16 A3013 RMK A01 T02950163  RH  045%=      5-min Rain = 0
KBY1 201629Z 22006KT 30/16 A3013 RMK A01 T02960164  RH  045%=      5-min Rain = 0
KBY1 201630Z 22005KT 30/17 A3013 RMK A01 T02970165  RH  045%=      5-min Rain = 0
KBY1 201631Z 22006KT 30/16 A3013 RMK A01 T02980164  RH  044%=      5-min Rain = 0
KBY1 201632Z 23006KT 30/17 A3013 RMK A01 T02970165  RH  045%=      5-min Rain = 0
KBY1 201633Z 22005KT 30/16 A3013 RMK A01 T02970163  RH  045%=      5-min Rain = 0
KBY1 201634Z 21007KT 30/16 A3013 RMK A01 T02960162  RH  044%=      5-min Rain = 0
KBY1 201635Z 22006KT 30/16 A3013 RMK A01 T02950163  RH  045%=      5-min Rain = 0
KBY1 201636Z 22006KT 30/17 A3013 RMK A01 T02950166  RH  046%=      5-min Rain = 0
KBY1 201637Z 22008KT 30/16 A3013 RMK A01 T02950161  RH  044%=      5-min Rain = 0
KBY1 201638Z 21006KT 30/16 A3013 RMK A01 T02950160  RH  044%=      5-min Rain = 0
KBY1 201639Z 22004KT 30/17 A3013 RMK A01 T02950166  RH  046%=      5-min Rain = 0
KBY1 201640Z 21003KT 30/17 A3013 RMK A01 T02950167  RH  046%=      5-min Rain = 0
KBY1 201641Z 22005KT 30/16 A3013 RMK A01 T02960163  RH  045%=      5-min Rain = 0
KBY1 201642Z 23003KT 30/16 A3013 RMK A01 T02960164  RH  045%=      5-min Rain = 0
KBY1 201643Z 23006KT 30/16 A3013 RMK A01 T02970161  RH  044%=      5-min Rain = 0
KBY1 201644Z 23006KT 30/16 A3013 RMK A01 T02970161  RH  044%=      5-min Rain = 0
KBY1 201645Z 23005KT 30/16 A3013 RMK A01 T02960163  RH  045%=      5-min Rain = 0
KBY1 201646Z 22005KT 30/17 A3013 RMK A01 T02960165  RH  045%=      5-min Rain = 0
KBY1 201647Z 22005KT 30/17 A3013 RMK A01 T02960166  RH  046%=      5-min Rain = 0
KBY1 201648Z 21006KT 30/16 A3013 RMK A01 T02960160  RH  044%=      5-min Rain = 0
KBY1 201649Z 21007KT 30/16 A3013 RMK A01 T02960161  RH  044%=      5-min Rain = 0
KBY1 201650Z 22007KT 30/16 A3013 RMK A01 T02950162  RH  044%=      5-min Rain = 0
KBY1 201651Z 21005KT 30/16 A3013 RMK A01 T02950163  RH  045%=      5-min Rain = 0
KBY1 201652Z 21006KT 30/16 A3013 RMK A01 T02950164  RH  045%=      5-min Rain = 0
KBY1 201653Z 22006KT 30/16 A3013 RMK A01 T02950160  RH  044%=      5-min Rain = 0
KBY1 201654Z 22006KT 29/17 A3013 RMK A01 T02940165  RH  046%=      5-min Rain = 0
KBY1 201655Z 21005KT 29/16 A3013 RMK A01 T02940162  RH  045%=      5-min Rain = 0
KBY1 201656Z 21005KT 29/17 A3013 RMK A01 T02940166  RH  046%=      5-min Rain = 0
KBY1 201657Z 20004KT 30/17 A3013 RMK A01 T02950167  RH  046%=      5-min Rain = 0
KBY1 201658Z 21005KT 30/17 A3013 RMK A01 T02960170  RH  047%=      5-min Rain = 0
KBY1 201659Z 21006KT 30/17 A3013 RMK A01 T02960165  RH  045%=      5-min Rain = 0
KBY1 201700Z 21005KT 30/16 A3013 RMK A01 T02960163  RH  045%=      5-min Rain = 0
KBY1 201701Z 22005KT 30/17 A3013 RMK A01 T02960166  RH  045%=      5-min Rain = 0
KBY1 201702Z 21005KT 30/17 A3013 RMK A01 T02960166  RH  045%=      5-min Rain = 0
KBY1 201703Z 22005KT 30/17 A3013 RMK A01 T02960167  RH  046%=      5-min Rain = 0
KBY1 201704Z 22005KT 30/17 A3013 RMK A01 T02970167  RH  046%=      5-min Rain = 0
KBY1 201705Z 21005KT 30/17 A3013 RMK A01 T02990170  RH  046%=      5-min Rain = 0
KBY1 201706Z 22005KT 30/17 A3013 RMK A01 T03020172  RH  046%=      5-min Rain = 0
KBY1 201707Z 22005KT 31/18 A3013 RMK A01 T03070175  RH  045%=      5-min Rain = 0
KBY1 201708Z 23006KT 31/17 A3013 RMK A01 T03090171  RH  044%=      5-min Rain = 0
KBY1 201709Z 24006KT 31/17 A3013 RMK A01 T03100169  RH  043%=      5-min Rain = 0
KBY1 201710Z 22004KT 31/17 A3013 RMK A01 T03090171  RH  044%=      5-min Rain = 0
KBY1 201711Z 22005KT 31/18 A3013 RMK A01 T03100177  RH  045%=      5-min Rain = 0
KBY1 201712Z 22005KT 31/17 A3012 RMK A01 T03120170  RH  043%=      5-min Rain = 0
KBY1 201713Z 22005KT 31/17 A3012 RMK A01 T03120172  RH  043%=      5-min Rain = 0
KBY1 201714Z 24004KT 31/18 A3012 RMK A01 T03120176  RH  044%=      5-min Rain = 0
KBY1 201715Z 24005KT 31/17 A3012 RMK A01 T03120172  RH  043%=      5-min Rain = 0
KBY1 201716Z 24005KT 31/17 A3012 RMK A01 T03120170  RH  042%=      5-min Rain = 0
KBY1 201717Z 25005KT 31/17 A3012 RMK A01 T03120172  RH  043%=      5-min Rain = 0
KBY1 201718Z 24002KT 31/17 A3012 RMK A01 T03130168  RH  042%=      5-min Rain = 0
KBY1 201719Z 25004KT 31/17 A3012 RMK A01 T03140172  RH  043%=      5-min Rain = 0
KBY1 201720Z 22004KT 32/17 A3012 RMK A01 T03160171  RH  042%=      5-min Rain = 0
KBY1 201721Z 20002KT 32/17 A3012 RMK A01 T03160171  RH  042%=      5-min Rain = 0
KBY1 201722Z 24001KT 32/18 A3012 RMK A01 T03160180  RH  044%=      5-min Rain = 0
KBY1 201723Z 26005KT 32/18 A3012 RMK A01 T03200180  RH  043%=      5-min Rain = 0
KBY1 201724Z 27010KT 32/17 A3012 RMK A01 T03240172  RH  040%=      5-min Rain = 0
KBY1 201725Z 25011KT 32/17 A3012 RMK A01 T03240168  RH  039%=      5-min Rain = 0
KBY1 201726Z 24007KT 32/17 A3012 RMK A01 T03220166  RH  039%=      5-min Rain = 0
KBY1 201727Z 25009KT 32/17 A3012 RMK A01 T03200170  RH  041%=      5-min Rain = 0
KBY1 201728Z 24009KT 32/17 A3012 RMK A01 T03220168  RH  040%=      5-min Rain = 0
KBY1 201729Z 25013KT 32/17 A3012 RMK A01 T03230166  RH  039%=      5-min Rain = 0
KBY1 201730Z 24009KT 32/17 A3012 RMK A01 T03220169  RH  040%=      5-min Rain = 0
KBY1 201731Z 23009KT 32/17 A3012 RMK A01 T03210165  RH  039%=      5-min Rain = 0
KBY1 201732Z 22007KT 32/17 A3012 RMK A01 T03180167  RH  040%=      5-min Rain = 0
KBY1 201733Z 23005KT 32/17 A3012 RMK A01 T03180172  RH  042%=      5-min Rain = 0
KBY1 201734Z 23005KT 32/17 A3012 RMK A01 T03180174  RH  042%=      5-min Rain = 0
KBY1 201735Z 23005KT 32/17 A3012 RMK A01 T03190169  RH  041%=      5-min Rain = 0
KBY1 201736Z 23007KT 32/17 A3012 RMK A01 T03190172  RH  041%=      5-min Rain = 0
KBY1 201737Z 23007KT 32/17 A3012 RMK A01 T03190169  RH  041%=      5-min Rain = 0
KBY1 201738Z 24005KT 32/17 A3012 RMK A01 T03180167  RH  040%=      5-min Rain = 0
KBY1 201739Z 24006KT 32/17 A3012 RMK A01 T03160168  RH  041%=      5-min Rain = 0
KBY1 201740Z 24007KT 32/17 A3012 RMK A01 T03160167  RH  041%=      5-min Rain = 0
KBY1 201741Z 24007KT 32/17 A3012 RMK A01 T03170166  RH  040%=      5-min Rain = 0
KBY1 201742Z 25006KT 32/17 A3012 RMK A01 T03170165  RH  040%=      5-min Rain = 0
KBY1 201743Z 25010KT 32/17 A3011 RMK A01 T03180168  RH  041%=      5-min Rain = 0
KBY1 201744Z 24008KT 32/17 A3012 RMK A01 T03180165  RH  040%=      5-min Rain = 0
KBY1 201745Z 23008KT 32/17 A3011 RMK A01 T03180166  RH  040%=      5-min Rain = 0
KBY1 201746Z 24008G13KT 32/17 A3011 RMK A01 T03180169  RH  041%=      5-min Rain = 0
KBY1 201747Z 24008KT 32/16 A3011 RMK A01 T03180164  RH  040%=      5-min Rain = 0
KBY1 201748Z 26006KT 32/17 A3011 RMK A01 T03180167  RH  040%=      5-min Rain = 0
KBY1 201749Z 25007KT 32/17 A3011 RMK A01 T03190171  RH  041%=      5-min Rain = 0
KBY1 201750Z 23005KT 32/17 A3011 RMK A01 T03220169  RH  040%=      5-min Rain = 0
KBY1 201751Z 25008KT 33/17 A3011 RMK A01 T03260170  RH  039%=      5-min Rain = 0
KBY1 201752Z 26008KT 33/17 A3011 RMK A01 T03290167  RH  038%=      5-min Rain = 0
KBY1 201753Z 24006KT 33/17 A3011 RMK A01 T03290169  RH  039%=      5-min Rain = 0
KBY1 201754Z 24007KT 33/17 A3011 RMK A01 T03300171  RH  039%=      5-min Rain = 0
KBY1 201755Z 22010KT 33/17 A3011 RMK A01 T03320168  RH  038%=      5-min Rain = 0
KBY1 201756Z 21007KT 33/17 A3011 RMK A01 T03320169  RH  038%=      5-min Rain = 0
KBY1 201757Z 20005KT 33/18 A3011 RMK A01 T03340176  RH  039%=      5-min Rain = 0
KBY1 201758Z 20007KT 34/17 A3011 RMK A01 T03390167  RH  036%=      5-min Rain = 0
KBY1 201759Z 23006KT 34/17 A3011 RMK A01 T03380171  RH  037%=      5-min Rain = 0
KBY1 201800Z 23007KT 33/17 A3011 RMK A01 T03340171  RH  038%=      5-min Rain = 0
KBY1 201801Z 22005KT 33/18 A3011 RMK A01 T03330175  RH  039%=      5-min Rain = 0
KBY1 201802Z 21005KT 34/17 A3011 RMK A01 T03360173  RH  038%=      5-min Rain = 0
KBY1 201803Z 21007KT 34/17 A3011 RMK A01 T03390168  RH  036%=      5-min Rain = 0
KBY1 201804Z 24008KT 34/17 A3011 RMK A01 T03410173  RH  037%=      5-min Rain = 0
KBY1 201805Z 22008KT 34/17 A3011 RMK A01 T03420170  RH  036%=      5-min Rain = 0
KBY1 201806Z 23007KT 34/17 A3011 RMK A01 T03410169  RH  036%=      5-min Rain = 0
KBY1 201807Z 24009KT 34/17 A3011 RMK A01 T03400172  RH  037%=      5-min Rain = 0
KBY1 201808Z 24009KT 34/17 A3011 RMK A01 T03410171  RH  036%=      5-min Rain = 0
KBY1 201809Z 24009KT 34/17 A3011 RMK A01 T03420168  RH  035%=      5-min Rain = 0
KBY1 201810Z 23011KT 34/17 A301 RMK A01 T03420168  RH  036%=      5-min Rain = 0
KBY1 201811Z 23009KT 34/17 A301 RMK A01 T03420165  RH  035%=      5-min Rain = 0
KBY1 201812Z 23010KT 34/16 A301 RMK A01 T03420163  RH  034%=      5-min Rain = 0
KBY1 201813Z 22009KT 34/17 A301 RMK A01 T03400165  RH  035%=      5-min Rain = 0
KBY1 201814Z 20011KT 34/17 A301 RMK A01 T03410168  RH  036%=      5-min Rain = 0
KBY1 201815Z 20010KT 34/16 A301 RMK A01 T03420162  RH  034%=      5-min Rain = 0
KBY1 201816Z 20009KT 34/16 A301 RMK A01 T03370160  RH  035%=      5-min Rain = 0
KBY1 201817Z 22011G17KT 34/17 A301 RMK A01 T03360167  RH  037%=      5-min Rain = 0
KBY1 201818Z 22015KT 34/15 A301 RMK A01 T03390152  RH  033%=      5-min Rain = 0
KBY1 201819Z 23014KT 34/15 A301 RMK A01 T03390145  RH  031%=      5-min Rain = 0
KBY1 201820Z 22012KT 34/14 A301 RMK A01 T03390143  RH  031%=      5-min Rain = 0
KBY1 201821Z 24011KT 34/15 A301 RMK A01 T03410147  RH  031%=      5-min Rain = 0
KBY1 201822Z 24011KT 34/14 A301 RMK A01 T03440141  RH  029%=      5-min Rain = 0
KBY1 201823Z 23009G17KT 34/15 A301 RMK A01 T03430149  RH  031%=      5-min Rain = 0
KBY1 201824Z 22012KT 34/15 A301 RMK A01 T03430145  RH  030%=      5-min Rain = 0
KBY1 201825Z 21011KT 34/15 A301 RMK A01 T03410149  RH  032%=      5-min Rain = 0
KBY1 201826Z 23011G16KT 34/15 A301 RMK A01 T03420154  RH  032%=      5-min Rain = 0
KBY1 201827Z 23011KT 34/15 A301 RMK A01 T03410153  RH  032%=      5-min Rain = 0
KBY1 201828Z 23014KT 34/15 A301 RMK A01 T03370152  RH  033%=      5-min Rain = 0
KBY1 201829Z 23015KT 33/15 A301 RMK A01 T03310151  RH  034%=      5-min Rain = 0
KBY1 201830Z 23012KT 33/15 A301 RMK A01 T03260153  RH  035%=      5-min Rain = 0
KBY1 201831Z 23011KT 32/15 A301 RMK A01 T03240153  RH  036%=      5-min Rain = 0
KBY1 201832Z 23011KT 32/15 A301 RMK A01 T03220153  RH  036%=      5-min Rain = 0
KBY1 201833Z 23009KT 32/16 A301 RMK A01 T03210156  RH  037%=      5-min Rain = 0
KBY1 201834Z 23010KT 32/15 A301 RMK A01 T03200154  RH  037%=      5-min Rain = 0
KBY1 201835Z 23008KT 32/16 A301 RMK A01 T03190159  RH  038%=      5-min Rain = 0
KBY1 201836Z 22010KT 32/16 A301 RMK A01 T03190155  RH  037%=      5-min Rain = 0
KBY1 201837Z 22009KT 32/16 A301 RMK A01 T03190155  RH  037%=      5-min Rain = 0
KBY1 201838Z 22009KT 32/16 A301 RMK A01 T03200157  RH  038%=      5-min Rain = 0
KBY1 201839Z 22007KT 32/16 A301 RMK A01 T03220159  RH  038%=      5-min Rain = 0
KBY1 201840Z 23006KT 33/16 A301 RMK A01 T03260158  RH  036%=      5-min Rain = 0
KBY1 201841Z 21009KT 33/15 A3009 RMK A01 T03260153  RH  035%=      5-min Rain = 0
KBY1 201842Z 20009KT 33/15 A3009 RMK A01 T03260151  RH  035%=      5-min Rain = 0
KBY1 201843Z 21010KT 33/15 A3009 RMK A01 T03270151  RH  035%=      5-min Rain = 0
KBY1 201844Z 22009KT 33/16 A3009 RMK A01 T03290155  RH  035%=      5-min Rain = 0
KBY1 201845Z 22008KT 33/15 A3009 RMK A01 T03300153  RH  035%=      5-min Rain = 0
KBY1 201846Z 21010KT 33/16 A3009 RMK A01 T03320155  RH  035%=      5-min Rain = 0
KBY1 201847Z 21010KT 33/15 A3009 RMK A01 T03330154  RH  034%=      5-min Rain = 0
KBY1 201848Z 21009KT 34/15 A3009 RMK A01 T03350154  RH  034%=      5-min Rain = 0
KBY1 201849Z 21012KT 34/16 A3009 RMK A01 T03370157  RH  034%=      5-min Rain = 0
KBY1 201850Z 21012KT 34/15 A3009 RMK A01 T03390153  RH  033%=      5-min Rain = 0
KBY1 201851Z 21009KT 34/15 A3009 RMK A01 T03380153  RH  033%=      5-min Rain = 0
KBY1 201852Z 20008KT 34/15 A3009 RMK A01 T03370154  RH  034%=      5-min Rain = 0
KBY1 201853Z 23009KT 34/16 A3009 RMK A01 T03370159  RH  035%=      5-min Rain = 0
KBY1 201854Z 22007KT 34/16 A3009 RMK A01 T03370155  RH  034%=      5-min Rain = 0
KBY1 201855Z 22008KT 34/15 A3009 RMK A01 T03350154  RH  034%=      5-min Rain = 0
KBY1 201856Z 21007KT 33/16 A3009 RMK A01 T03330155  RH  034%=      5-min Rain = 0
KBY1 201857Z 22008KT 34/16 A3009 RMK A01 T03360158  RH  035%=      5-min Rain = 0
KBY1 201858Z 23009KT 34/16 A3009 RMK A01 T03400157  RH  033%=      5-min Rain = 0
KBY1 201859Z 22009KT 34/16 A3009 RMK A01 T03420157  RH  033%=      5-min Rain = 0
KBY1 201900Z 23008KT 34/16 A3009 RMK A01 T03430157  RH  033%=      5-min Rain = 0
KBY1 201901Z 21006KT 34/16 A3009 RMK A01 T03430159  RH  033%=      5-min Rain = 0
KBY1 201902Z 20007G12KT 35/16 A3009 RMK A01 T03460160  RH  033%=      5-min Rain = 0
KBY1 201903Z 19012KT 35/15 A3009 RMK A01 T03490153  RH  031%=      5-min Rain = 0
KBY1 201904Z 18010KT 35/15 A3009 RMK A01 T03500150  RH  030%=      5-min Rain = 0
KBY1 201905Z 19010KT 35/16 A3008 RMK A01 T03500155  RH  031%=      5-min Rain = 0
KBY1 201906Z 18010KT 35/15 A3008 RMK A01 T03520154  RH  031%=      5-min Rain = 0
KBY1 201907Z 16011KT 35/15 A3008 RMK A01 T03530152  RH  030%=      5-min Rain = 0
KBY1 201908Z 16012KT 35/15 A3008 RMK A01 T03520154  RH  031%=      5-min Rain = 0
KBY1 201909Z 17011KT 35/15 A3008 RMK A01 T03510154  RH  031%=      5-min Rain = 0
KBY1 201910Z 18009KT 35/15 A3008 RMK A01 T03540153  RH  030%=      5-min Rain = 0
KBY1 201911Z 17009KT 36/15 A3008 RMK A01 T03560152  RH  030%=      5-min Rain = 0
KBY1 201912Z 16012KT 36/15 A3008 RMK A01 T03560152  RH  030%=      5-min Rain = 0
KBY1 201913Z 17011KT 35/15 A3008 RMK A01 T03530151  RH  030%=      5-min Rain = 0
KBY1 201914Z 17013KT 35/15 A3008 RMK A01 T03510151  RH  030%=      5-min Rain = 0
KBY1 201915Z 20013KT 35/15 A3008 RMK A01 T03510154  RH  031%=      5-min Rain = 0
KBY1 201916Z 19010KT 35/16 A3008 RMK A01 T03510158  RH  032%=      5-min Rain = 0
KBY1 201917Z 20009KT 36/15 A3008 RMK A01 T03550154  RH  030%=      5-min Rain = 0
KBY1 201918Z 19008G13KT 36/16 A3008 RMK A01 T03570159  RH  031%=      5-min Rain = 0
KBY1 201919Z 18012KT 36/16 A3008 RMK A01 T03600161  RH  031%=      5-min Rain = 0
KBY1 201920Z 19012KT 36/16 A3008 RMK A01 T03580158  RH  030%=      5-min Rain = 0
KBY1 201921Z 17010KT 36/16 A3008 RMK A01 T03550159  RH  031%=      5-min Rain = 0
KBY1 201922Z 17011KT 36/16 A3008 RMK A01 T03550163  RH  032%=      5-min Rain = 0
KBY1 201923Z 17009KT 36/16 A3008 RMK A01 T03580162  RH  031%=      5-min Rain = 0
KBY1 201924Z 18010KT 36/16 A3008 RMK A01 T03600158  RH  030%=      5-min Rain = 0
KBY1 201925Z 18007KT 36/16 A3008 RMK A01 T03590156  RH  030%=      5-min Rain = 0
KBY1 201926Z 18012KT 36/16 A3008 RMK A01 T03590160  RH  031%=      5-min Rain = 0
KBY1 201927Z 18013KT 36/16 A3008 RMK A01 T03590164  RH  032%=      5-min Rain = 0
KBY1 201928Z 18009KT 36/16 A3008 RMK A01 T03570158  RH  031%=      5-min Rain = 0
KBY1 201929Z 17008KT 36/16 A3008 RMK A01 T03550159  RH  031%=      5-min Rain = 0
KBY1 201930Z 17008KT 35/17 A3007 RMK A01 T03530166  RH  033%=      5-min Rain = 0
KBY1 201931Z 17009KT 36/17 A3007 RMK A01 T03590170  RH  033%=      5-min Rain = 0
KBY1 201932Z 18012KT 36/16 A3007 RMK A01 T03630161  RH  030%=      5-min Rain = 0
KBY1 201933Z 18014KT 36/15 A3007 RMK A01 T03610154  RH  029%=      5-min Rain = 0
KBY1 201934Z 19012KT 36/15 A3007 RMK A01 T03580153  RH  030%=      5-min Rain = 0
KBY1 201935Z 19013KT 36/15 A3007 RMK A01 T03580148  RH  029%=      5-min Rain = 0
KBY1 201936Z 18015KT 36/15 A3007 RMK A01 T03570150  RH  029%=      5-min Rain = 0
KBY1 201937Z 21013KT 36/15 A3007 RMK A01 T03560148  RH  029%=      5-min Rain = 0
KBY1 201938Z 20012KT 35/14 A3007 RMK A01 T03540144  RH  028%=      5-min Rain = 0
KBY1 201939Z 20011KT 35/15 A3007 RMK A01 T03510147  RH  029%=      5-min Rain = 0
KBY1 201940Z 21007KT 35/15 A3007 RMK A01 T03490148  RH  030%=      5-min Rain = 0
KBY1 201941Z 22008KT 35/15 A3007 RMK A01 T03480150  RH  031%=      5-min Rain = 0
KBY1 201942Z 21008KT 35/15 A3007 RMK A01 T03480152  RH  031%=      5-min Rain = 0
KBY1 201943Z 22009KT 35/15 A3007 RMK A01 T03480154  RH  031%=      5-min Rain = 0
KBY1 201944Z 22007KT 35/16 A3007 RMK A01 T03470155  RH  032%=      5-min Rain = 0
KBY1 201945Z 22010KT 35/15 A3007 RMK A01 T03470152  RH  031%=      5-min Rain = 0
KBY1 201946Z 21011KT 35/15 A3007 RMK A01 T03470154  RH  032%=      5-min Rain = 0
KBY1 201947Z 21008KT 35/16 A3007 RMK A01 T03480155  RH  032%=      5-min Rain = 0
KBY1 201948Z 22008KT 35/15 A3007 RMK A01 T03490154  RH  031%=      5-min Rain = 0
KBY1 201949Z 22010KT 35/15 A3007 RMK A01 T03490151  RH  031%=      5-min Rain = 0
KBY1 201950Z 22010KT 35/15 A3007 RMK A01 T03490151  RH  031%=      5-min Rain = 0
KBY1 201951Z 22008KT 35/15 A3007 RMK A01 T03520154  RH  031%=      5-min Rain = 0
KBY1 201952Z 22009KT 36/15 A3007 RMK A01 T03580153  RH  030%=      5-min Rain = 0
KBY1 201953Z 21008KT 36/15 A3007 RMK A01 T03580145  RH  028%=      5-min Rain = 0
KBY1 201954Z 22011KT 36/15 A3007 RMK A01 T03570147  RH  029%=      5-min Rain = 0
KBY1 201955Z 22013KT 36/14 A3007 RMK A01 T03570142  RH  028%=      5-min Rain = 0
KBY1 201956Z 21014KT 35/14 A3007 RMK A01 T03540140  RH  028%=      5-min Rain = 0
KBY1 201957Z 20013KT 35/14 A3007 RMK A01 T03530138  RH  028%=      5-min Rain = 0
KBY1 201958Z 21010KT 35/14 A3007 RMK A01 T03540143  RH  028%=      5-min Rain = 0
KBY1 201959Z 22008KT 36/14 A3007 RMK A01 T03560139  RH  027%=      5-min Rain = 0
KBY1 202000Z 22008KT 36/14 A3007 RMK A01 T03570139  RH  027%=      5-min Rain = 0
KBY1 202001Z 21007KT 36/14 A3007 RMK A01 T03580138  RH  027%=      5-min Rain = 0
KBY1 202002Z 20009KT 36/14 A3007 RMK A01 T03590139  RH  027%=      5-min Rain = 0
KBY1 202003Z 20013KT 36/14 A3007 RMK A01 T03600140  RH  027%=      5-min Rain = 0
KBY1 202004Z 20012KT 36/13 A3007 RMK A01 T03620134  RH  026%=      5-min Rain = 0
KBY1 202005Z 19008KT 36/13 A3006 RMK A01 T03610131  RH  025%=      5-min Rain = 0
KBY1 202006Z 21006G11KT 36/14 A3006 RMK A01 T03600137  RH  026%=      5-min Rain = 0
KBY1 202007Z 20011KT 36/14 A3006 RMK A01 T03630140  RH  027%=      5-min Rain = 0
KBY1 202008Z 17007KT 37/14 A3006 RMK A01 T03670143  RH  026%=      5-min Rain = 0
KBY1 202009Z 18009KT 37/14 A3006 RMK A01 T03680136  RH  025%=      5-min Rain = 0
KBY1 202010Z 20009KT 37/14 A3006 RMK A01 T03660137  RH  025%=      5-min Rain = 0
KBY1 202011Z 21010KT 37/14 A3006 RMK A01 T03670136  RH  025%=      5-min Rain = 0
KBY1 202012Z 21010KT 37/13 A3006 RMK A01 T03680129  RH  024%=      5-min Rain = 0
KBY1 202013Z 22010KT 37/13 A3006 RMK A01 T03670131  RH  024%=      5-min Rain = 0
KBY1 202014Z 21011G16KT 37/14 A3006 RMK A01 T03660137  RH  025%=      5-min Rain = 0
KBY1 202015Z 19012KT 37/14 A3006 RMK A01 T03690138  RH  025%=      5-min Rain = 0
KBY1 202016Z 20009KT 37/14 A3006 RMK A01 T03700135  RH  025%=      5-min Rain = 0
KBY1 202017Z 20012G17KT 37/13 A3006 RMK A01 T03680131  RH  024%=      5-min Rain = 0
KBY1 202018Z 21013KT 37/11 A3006 RMK A01 T03680113  RH  022%=      5-min Rain = 0
KBY1 202019Z 21012KT 37/11 A3006 RMK A01 T03680108  RH  021%=      5-min Rain = 0
KBY1 202020Z 22008KT 37/11 A3006 RMK A01 T03670114  RH  022%=      5-min Rain = 0
KBY1 202021Z 21012KT 37/12 A3006 RMK A01 T03690116  RH  022%=      5-min Rain = 0
KBY1 202022Z 21011KT 37/12 A3006 RMK A01 T03680118  RH  022%=      5-min Rain = 0
KBY1 202023Z 19011KT 37/13 A3006 RMK A01 T03680127  RH  024%=      5-min Rain = 0
KBY1 202024Z 19013KT 37/13 A3006 RMK A01 T03670127  RH  024%=      5-min Rain = 0
KBY1 202025Z 18009KT 37/13 A3006 RMK A01 T03660129  RH  024%=      5-min Rain = 0
KBY1 202026Z 17008KT 37/13 A3006 RMK A01 T03650128  RH  024%=      5-min Rain = 0
KBY1 202027Z 20006KT 37/13 A3006 RMK A01 T03660131  RH  025%=      5-min Rain = 0
KBY1 202028Z 19010KT 37/13 A3006 RMK A01 T03690133  RH  024%=      5-min Rain = 0
KBY1 202029Z 21011KT 37/13 A3006 RMK A01 T03710132  RH  024%=      5-min Rain = 0
KBY1 202030Z 22012KT 37/13 A3006 RMK A01 T03720126  RH  023%=      5-min Rain = 0
KBY1 202031Z 20010KT 37/13 A3006 RMK A01 T03680127  RH  024%=      5-min Rain = 0
KBY1 202032Z 18009KT 37/13 A3006 RMK A01 T03660133  RH  025%=      5-min Rain = 0
KBY1 202033Z 19012KT 37/14 A3005 RMK A01 T03680135  RH  025%=      5-min Rain = 0
KBY1 202034Z 19011KT 37/13 A3005 RMK A01 T03680133  RH  025%=      5-min Rain = 0
KBY1 202035Z 20011KT 37/14 A3005 RMK A01 T03650137  RH  026%=      5-min Rain = 0
KBY1 202036Z 21009KT 37/14 A3005 RMK A01 T03660140  RH  026%=      5-min Rain = 0
KBY1 202037Z 18010KT 37/14 A3005 RMK A01 T03660143  RH  026%=      5-min Rain = 0
KBY1 202038Z 19008KT 37/14 A3005 RMK A01 T03650138  RH  026%=      5-min Rain = 0
KBY1 202039Z 18012KT 36/15 A3005 RMK A01 T03630146  RH  027%=      5-min Rain = 0
KBY1 202040Z 17012KT 37/14 A3005 RMK A01 T03660141  RH  026%=      5-min Rain = 0
KBY1 202041Z 18010KT 37/14 A3005 RMK A01 T03660140  RH  026%=      5-min Rain = 0
KBY1 202042Z 17007KT 37/14 A3005 RMK A01 T03680140  RH  026%=      5-min Rain = 0
KBY1 202043Z 17010KT 37/14 A3005 RMK A01 T03680135  RH  025%=      5-min Rain = 0
KBY1 202044Z 17013KT 37/13 A3005 RMK A01 T03680126  RH  024%=      5-min Rain = 0
KBY1 202045Z 18011KT 37/12 A3005 RMK A01 T03700116  RH  022%=      5-min Rain = 0
KBY1 202046Z 20011KT 37/12 A3005 RMK A01 T03700116  RH  022%=      5-min Rain = 0
KBY1 202047Z 20009KT 37/11 A3005 RMK A01 T03710112  RH  021%=      5-min Rain = 0
KBY1 202048Z 19008KT 37/11 A3005 RMK A01 T03700112  RH  021%=      5-min Rain = 0
KBY1 202049Z 20006KT 37/12 A3005 RMK A01 T03690120  RH  023%=      5-min Rain = 0
KBY1 202050Z 20008KT 37/13 A3004 RMK A01 T03700126  RH  023%=      5-min Rain = 0
KBY1 202051Z 18007G14KT 37/13 A3004 RMK A01 T03740125  RH  023%=      5-min Rain = 0
KBY1 202052Z 18010KT 37/13 A3004 RMK A01 T03740126  RH  023%=      5-min Rain = 0
KBY1 202053Z 19009KT 37/12 A3004 RMK A01 T03730121  RH  022%=      5-min Rain = 0
KBY1 202054Z 18009KT 37/12 A3004 RMK A01 T03700121  RH  023%=      5-min Rain = 0
KBY1 202055Z 18008KT 37/12 A3004 RMK A01 T03680123  RH  023%=      5-min Rain = 0
KBY1 202056Z 18011KT 37/12 A3004 RMK A01 T03700123  RH  023%=      5-min Rain = 0
KBY1 202057Z 18010KT 37/12 A3004 RMK A01 T03710117  RH  022%=      5-min Rain = 0
KBY1 202058Z 21007KT 37/12 A3004 RMK A01 T03700116  RH  022%=      5-min Rain = 0
KBY1 202059Z 20005KT 37/12 A3004 RMK A01 T03670121  RH  023%=      5-min Rain = 0
KBY1 202100Z 21006KT 37/13 A3004 RMK A01 T03700129  RH  024%=      5-min Rain = 0
KBY1 202101Z 20007KT 37/13 A3004 RMK A01 T03740129  RH  023%=      5-min Rain = 0
KBY1 202102Z 18006KT 37/13 A3004 RMK A01 T03740133  RH  024%=      5-min Rain = 0
KBY1 202103Z 16008KT 38/13 A3003 RMK A01 T03750128  RH  023%=      5-min Rain = 0
KBY1 202104Z 17007KT 37/13 A3003 RMK A01 T03740127  RH  023%=      5-min Rain = 0
KBY1 202105Z 18008KT 37/13 A3003 RMK A01 T03740128  RH  023%=      5-min Rain = 0
KBY1 202106Z 20008KT 38/13 A3003 RMK A01 T03750131  RH  023%=      5-min Rain = 0
KBY1 202107Z 22012G19KT 38/13 A3003 RMK A01 T03750132  RH  024%=      5-min Rain = 0
KBY1 202108Z 22016KT 37/13 A3003 RMK A01 T03740134  RH  024%=      5-min Rain = 0
KBY1 202109Z 22013KT 37/13 A3003 RMK A01 T03710132  RH  024%=      5-min Rain = 0
KBY1 202110Z 22012KT 37/13 A3003 RMK A01 T03700130  RH  024%=      5-min Rain = 0
KBY1 202111Z 23010KT 37/13 A3003 RMK A01 T03710134  RH  024%=      5-min Rain = 0
KBY1 202112Z 23009KT 37/13 A3003 RMK A01 T03740133  RH  024%=      5-min Rain = 0
KBY1 202113Z 22008KT 37/13 A3003 RMK A01 T03740133  RH  024%=      5-min Rain = 0
KBY1 202114Z 20008KT 37/13 A3003 RMK A01 T03720133  RH  024%=      5-min Rain = 0
KBY1 202115Z 22006KT 37/14 A3003 RMK A01 T03700136  RH  025%=      5-min Rain = 0
KBY1 202116Z 20008KT 37/14 A3002 RMK A01 T03700137  RH  025%=      5-min Rain = 0
KBY1 202117Z 19008KT 37/14 A3002 RMK A01 T03710138  RH  025%=      5-min Rain = 0
KBY1 202118Z 20011KT 37/14 A3002 RMK A01 T03740139  RH  025%=      5-min Rain = 0
KBY1 202119Z 19013KT 38/13 A3002 RMK A01 T03750130  RH  023%=      5-min Rain = 0
KBY1 202120Z 20013KT 38/13 A3002 RMK A01 T03750126  RH  023%=      5-min Rain = 0
KBY1 202121Z 18008KT 37/12 A3002 RMK A01 T03740119  RH  022%=      5-min Rain = 0
KBY1 202122Z 20007KT 37/12 A3002 RMK A01 T03730122  RH  022%=      5-min Rain = 0
KBY1 202123Z 20011KT 38/11 A3002 RMK A01 T03750112  RH  021%=      5-min Rain = 0
KBY1 202124Z 21016KT 38/11 A3002 RMK A01 T03760109  RH  020%=      5-min Rain = 0
KBY1 202125Z 22014KT 38/10 A3002 RMK A01 T03750102  RH  019%=      5-min Rain = 0
KBY1 202126Z 21011KT 37/10 A3002 RMK A01 T03740103  RH  019%=      5-min Rain = 0
KBY1 202127Z 20016G22KT 38/10 A3002 RMK A01 T03760104  RH  019%=      5-min Rain = 0
KBY1 202128Z 19016KT 38/10 A3002 RMK A01 T03770101  RH  019%=      5-min Rain = 0
KBY1 202129Z 18014KT 38/10 A3002 RMK A01 T03750099  RH  019%=      5-min Rain = 0
KBY1 202130Z 19011KT 37/10 A3002 RMK A01 T03740095  RH  019%=      5-min Rain = 0
KBY1 202131Z 18009KT 37/10 A3002 RMK A01 T03740102  RH  019%=      5-min Rain = 0
KBY1 202132Z 18010KT 38/10 A3002 RMK A01 T03760103  RH  019%=      5-min Rain = 0
KBY1 202133Z 20009KT 38/11 A3002 RMK A01 T03760105  RH  020%=      5-min Rain = 0
KBY1 202134Z 21010KT 38/11 A3002 RMK A01 T03750110  RH  020%=      5-min Rain = 0
KBY1 202135Z 21013KT 38/11 A3002 RMK A01 T03790111  RH  020%=      5-min Rain = 0
KBY1 202136Z 20011KT 38/11 A3002 RMK A01 T03790112  RH  020%=      5-min Rain = 0
KBY1 202137Z 19012KT 38/11 A3002 RMK A01 T03770113  RH  020%=      5-min Rain = 0
KBY1 202138Z 20011KT 38/11 A3002 RMK A01 T03770113  RH  021%=      5-min Rain = 0
KBY1 202139Z 19009KT 38/11 A3002 RMK A01 T03760112  RH  021%=      5-min Rain = 0
KBY1 202140Z 19007KT 38/11 A3002 RMK A01 T03750109  RH  020%=      5-min Rain = 0
KBY1 202141Z 19011KT 37/11 A3002 RMK A01 T03730112  RH  021%=      5-min Rain = 0
KBY1 202142Z 20013KT 37/11 A3002 RMK A01 T03730111  RH  021%=      5-min Rain = 0
KBY1 202143Z 17009KT 37/11 A3002 RMK A01 T03740110  RH  021%=      5-min Rain = 0
KBY1 202144Z 17010KT 38/11 A3002 RMK A01 T03750110  RH  020%=      5-min Rain = 0
KBY1 202145Z 16009KT 38/11 A3002 RMK A01 T03770107  RH  020%=      5-min Rain = 0
KBY1 202146Z 17008KT 38/11 A3001 RMK A01 T03770106  RH  020%=      5-min Rain = 0
KBY1 202147Z 19010G16KT 38/11 A3001 RMK A01 T03780105  RH  019%=      5-min Rain = 0
KBY1 202148Z 21014KT 38/10 A3001 RMK A01 T03780100  RH  019%=      5-min Rain = 0
KBY1 202149Z 18017KT 38/10 A3001 RMK A01 T03780098  RH  018%=      5-min Rain = 0
KBY1 202150Z 18014KT 38/10 A3001 RMK A01 T03770096  RH  018%=      5-min Rain = 0
KBY1 202151Z 18013KT 38/10 A3001 RMK A01 T03750097  RH  019%=      5-min Rain = 0
KBY1 202152Z 18009KT 38/10 A3001 RMK A01 T03750098  RH  019%=      5-min Rain = 0
KBY1 202153Z 18010KT 38/10 A3001 RMK A01 T03750098  RH  019%=      5-min Rain = 0
KBY1 202154Z 19015KT 38/10 A3001 RMK A01 T03760097  RH  018%=      5-min Rain = 0
KBY1 202155Z 20015KT 38/09 A3001 RMK A01 T03770094  RH  018%=      5-min Rain = 0
KBY1 202156Z 20012KT 38/10 A3001 RMK A01 T03770095  RH  018%=      5-min Rain = 0
KBY1 202157Z 19011KT 38/09 A3001 RMK A01 T03770094  RH  018%=      5-min Rain = 0
KBY1 202158Z 19010KT 38/09 A3001 RMK A01 T03770091  RH  018%=      5-min Rain = 0
KBY1 202159Z 18014KT 38/09 A3001 RMK A01 T03770093  RH  018%=      5-min Rain = 0
KBY1 202200Z 17011G16KT 38/10 A3001 RMK A01 T03780095  RH  018%=      5-min Rain = 0
KBY1 202201Z 16015KT 38/09 A3001 RMK A01 T03780088  RH  017%=      5-min Rain = 0
KBY1 202202Z 18014KT 38/09 A3001 RMK A01 T03780086  RH  017%=      5-min Rain = 0
KBY1 202203Z 19014KT 38/09 A3001 RMK A01 T03780089  RH  017%=      5-min Rain = 0
KBY1 202204Z 19012KT 38/09 A3001 RMK A01 T03790088  RH  017%=      5-min Rain = 0
KBY1 202205Z 18012KT 38/09 A3001 RMK A01 T03780089  RH  017%=      5-min Rain = 0
KBY1 202206Z 17014KT 38/09 A3001 RMK A01 T03780092  RH  018%=      5-min Rain = 0
KBY1 202207Z 18012KT 38/09 A30 RMK A01 T03780092  RH  018%=      5-min Rain = 0
KBY1 202208Z 18013KT 38/09 A30 RMK A01 T03780092  RH  018%=      5-min Rain = 0
KBY1 202209Z 18013KT 38/09 A30 RMK A01 T03770092  RH  018%=      5-min Rain = 0
KBY1 202210Z 18015KT 38/10 A30 RMK A01 T03760095  RH  018%=      5-min Rain = 0
KBY1 202211Z 18014KT 38/10 A30 RMK A01 T03750097  RH  019%=      5-min Rain = 0
KBY1 202212Z 18012KT 38/10 A30 RMK A01 T03750097  RH  019%=      5-min Rain = 0
KBY1 202213Z 18010KT 38/10 A30 RMK A01 T03750101  RH  019%=      5-min Rain = 0
KBY1 202214Z 16013KT 38/10 A30 RMK A01 T03760098  RH  019%=      5-min Rain = 0
KBY1 202215Z 18010KT 38/10 A30 RMK A01 T03770099  RH  019%=      5-min Rain = 0
KBY1 202216Z 19011KT 38/10 A30 RMK A01 T03780100  RH  019%=      5-min Rain = 0
KBY1 202217Z 21011KT 38/10 A30 RMK A01 T03790104  RH  019%=      5-min Rain = 0
KBY1 202218Z 21011KT 38/10 A30 RMK A01 T03810102  RH  019%=      5-min Rain = 0
KBY1 202219Z 19013KT 38/10 A30 RMK A01 T03810101  RH  019%=      5-min Rain = 0
KBY1 202220Z 18015KT 38/09 A30 RMK A01 T03800092  RH  018%=      5-min Rain = 0
KBY1 202221Z 18013KT 38/09 A30 RMK A01 T03780093  RH  018%=      5-min Rain = 0
KBY1 202222Z 18013KT 38/09 A30 RMK A01 T03770091  RH  018%=      5-min Rain = 0
KBY1 202223Z 18013KT 38/09 A30 RMK A01 T03770089  RH  017%=      5-min Rain = 0
KBY1 202224Z 18010KT 38/09 A30 RMK A01 T03770091  RH  018%=      5-min Rain = 0
KBY1 202225Z 18010KT 38/09 A30 RMK A01 T03780092  RH  018%=      5-min Rain = 0
KBY1 202226Z 19015KT 38/09 A30 RMK A01 T03790093  RH  018%=      5-min Rain = 0
KBY1 202227Z 18015KT 38/10 A30 RMK A01 T03780099  RH  019%=      5-min Rain = 0
KBY1 202228Z 17012KT 38/10 A30 RMK A01 T03760100  RH  019%=      5-min Rain = 0
KBY1 202229Z 16010KT 38/10 A30 RMK A01 T03750101  RH  019%=      5-min Rain = 0
KBY1 202230Z 17011KT 37/10 A30 RMK A01 T03740104  RH  020%=      5-min Rain = 0
KBY1 202231Z 17011KT 38/10 A30 RMK A01 T03750100  RH  019%=      5-min Rain = 0
KBY1 202232Z 16013KT 38/10 A30 RMK A01 T03760102  RH  019%=      5-min Rain = 0
KBY1 202233Z 17010G15KT 38/11 A30 RMK A01 T03760107  RH  020%=      5-min Rain = 0
KBY1 202234Z 18013KT 38/11 A30 RMK A01 T03780111  RH  020%=      5-min Rain = 0
KBY1 202235Z 18015KT 38/10 A30 RMK A01 T03780103  RH  019%=      5-min Rain = 0
KBY1 202236Z 17014KT 38/10 A30 RMK A01 T03750100  RH  019%=      5-min Rain = 0
KBY1 202237Z 17014KT 38/10 A30 RMK A01 T03750097  RH  019%=      5-min Rain = 0
KBY1 202238Z 18012KT 38/09 A30 RMK A01 T03750090  RH  018%=      5-min Rain = 0
KBY1 202239Z 16011KT 38/09 A30 RMK A01 T03750087  RH  017%=      5-min Rain = 0
KBY1 202240Z 16012KT 38/09 A30 RMK A01 T03760087  RH  017%=      5-min Rain = 0
KBY1 202241Z 19010KT 38/09 A3001 RMK A01 T03770092  RH  018%=      5-min Rain = 0
KBY1 202242Z 19012KT 38/09 A3001 RMK A01 T03790093  RH  018%=      5-min Rain = 0
KBY1 202243Z 20014KT 38/09 A3001 RMK A01 T03800088  RH  017%=      5-min Rain = 0
KBY1 202244Z 19014G20KT 38/08 A3001 RMK A01 T03800084  RH  017%=      5-min Rain = 0
KBY1 202245Z 18016KT 38/08 A3001 RMK A01 T03780077  RH  016%=      5-min Rain = 0
KBY1 202246Z 17014KT 38/08 A3001 RMK A01 T03760078  RH  016%=      5-min Rain = 0
KBY1 202247Z 17013KT 38/08 A3001 RMK A01 T03750079  RH  016%=      5-min Rain = 0
KBY1 202248Z 18012KT 38/08 A3001 RMK A01 T03750082  RH  017%=      5-min Rain = 0
KBY1 202249Z 18012KT 38/08 A3001 RMK A01 T03760082  RH  017%=      5-min Rain = 0
KBY1 202250Z 18009KT 38/09 A3001 RMK A01 T03770087  RH  017%=      5-min Rain = 0
KBY1 202251Z 18011KT 38/09 A3001 RMK A01 T03770085  RH  017%=      5-min Rain = 0
KBY1 202252Z 18014KT 38/09 A3001 RMK A01 T03770086  RH  017%=      5-min Rain = 0
KBY1 202253Z 18015KT 38/08 A3001 RMK A01 T03770076  RH  016%=      5-min Rain = 0
KBY1 202254Z 18014KT 38/08 A3001 RMK A01 T03760077  RH  016%=      5-min Rain = 0
KBY1 202255Z 18016KT 38/08 A3001 RMK A01 T03750076  RH  016%=      5-min Rain = 0
KBY1 202256Z 19013KT 37/07 A3001 RMK A01 T03740072  RH  016%=      5-min Rain = 0
KBY1 202257Z 19010KT 37/08 A3001 RMK A01 T03740075  RH  016%=      5-min Rain = 0
KBY1 202258Z 19013G19KT 37/08 A3001 RMK A01 T03740080  RH  017%=      5-min Rain = 0
KBY1 202259Z 19016KT 38/08 A3001 RMK A01 T03750082  RH  017%=      5-min Rain = 0
KBY1 202300Z 19009KT 37/08 A3001 RMK A01 T03740082  RH  017%=      5-min Rain = 0
KBY1 202301Z 20010KT 38/08 A3001 RMK A01 T03750084  RH  017%=      5-min Rain = 0
KBY1 202302Z 19013G20KT 38/09 A3001 RMK A01 T03770089  RH  017%=      5-min Rain = 0
KBY1 202303Z 19014KT 38/08 A3001 RMK A01 T03770084  RH  017%=      5-min Rain = 0
KBY1 202304Z 18011KT 38/09 A3001 RMK A01 T03760085  RH  017%=      5-min Rain = 0
KBY1 202305Z 17014KT 38/08 A3001 RMK A01 T03760083  RH  017%=      5-min Rain = 0
KBY1 202306Z 17013KT 38/08 A3001 RMK A01 T03750080  RH  017%=      5-min Rain = 0
KBY1 202307Z 18011KT 37/09 A3001 RMK A01 T03740085  RH  017%=      5-min Rain = 0
KBY1 202308Z 18013G18KT 37/08 A3001 RMK A01 T03740084  RH  017%=      5-min Rain = 0
KBY1 202309Z 19012KT 37/08 A3001 RMK A01 T03740078  RH  017%=      5-min Rain = 0
KBY1 202310Z 19011KT 37/08 A3001 RMK A01 T03740080  RH  017%=      5-min Rain = 0
KBY1 202311Z 18010KT 38/08 A3001 RMK A01 T03750076  RH  016%=      5-min Rain = 0
KBY1 202312Z 18010KT 37/08 A3001 RMK A01 T03740078  RH  017%=      5-min Rain = 0
KBY1 202313Z 17015KT 37/08 A3002 RMK A01 T03730079  RH  017%=      5-min Rain = 0
KBY1 202314Z 20012G17KT 37/08 A3002 RMK A01 T03730082  RH  017%=      5-min Rain = 0
KBY1 202315Z 20014KT 37/09 A3002 RMK A01 T03740090  RH  018%=      5-min Rain = 0
KBY1 202316Z 20010G15KT 37/09 A3002 RMK A01 T03740093  RH  018%=      5-min Rain = 0
KBY1 202317Z 19008KT 38/10 A3002 RMK A01 T03750095  RH  018%=      5-min Rain = 0
KBY1 202318Z 18010KT 38/10 A3002 RMK A01 T03760096  RH  018%=      5-min Rain = 0
KBY1 202319Z 18012KT 38/10 A3002 RMK A01 T03770095  RH  018%=      5-min Rain = 0
KBY1 202320Z 18010KT 38/09 A3002 RMK A01 T03770090  RH  018%=      5-min Rain = 0
KBY1 202321Z 18009KT 38/09 A3002 RMK A01 T03770088  RH  017%=      5-min Rain = 0
KBY1 202322Z 20009KT 38/09 A3002 RMK A01 T03770089  RH  018%=      5-min Rain = 0
KBY1 202323Z 20011KT 38/08 A3001 RMK A01 T03780083  RH  017%=      5-min Rain = 0
KBY1 202324Z 19009KT 38/09 A3001 RMK A01 T03770086  RH  017%=      5-min Rain = 0
KBY1 202325Z 19007KT 38/09 A3001 RMK A01 T03760086  RH  017%=      5-min Rain = 0
KBY1 202326Z 19008KT 38/09 A3001 RMK A01 T03760087  RH  017%=      5-min Rain = 0
KBY1 202327Z 17011KT 38/09 A3001 RMK A01 T03770086  RH  017%=      5-min Rain = 0
KBY1 202328Z 18013KT 38/08 A3001 RMK A01 T03760084  RH  017%=      5-min Rain = 0
KBY1 202329Z 19010KT 38/09 A3001 RMK A01 T03750085  RH  017%=      5-min Rain = 0
KBY1 202330Z 21009KT 38/09 A3001 RMK A01 T03750092  RH  018%=      5-min Rain = 0
KBY1 202331Z 20010KT 38/09 A3002 RMK A01 T03770091  RH  018%=      5-min Rain = 0
KBY1 202332Z 20012KT 38/09 A3001 RMK A01 T03770091  RH  018%=      5-min Rain = 0
KBY1 202333Z 19010KT 38/10 A3001 RMK A01 T03750095  RH  018%=      5-min Rain = 0
KBY1 202334Z 20011KT 37/10 A3001 RMK A01 T03740096  RH  019%=      5-min Rain = 0
KBY1 202335Z 21011KT 37/10 A3001 RMK A01 T03740097  RH  019%=      5-min Rain = 0
KBY1 202336Z 21009KT 37/10 A3001 RMK A01 T03740099  RH  019%=      5-min Rain = 0
KBY1 202337Z 19015KT 37/10 A3001 RMK A01 T03740098  RH  019%=      5-min Rain = 0
KBY1 202338Z 18016KT 37/10 A3001 RMK A01 T03730096  RH  019%=      5-min Rain = 0
KBY1 202339Z 19015KT 37/09 A3001 RMK A01 T03710093  RH  019%=      5-min Rain = 0
KBY1 202340Z 19012KT 37/09 A3002 RMK A01 T03700090  RH  018%=      5-min Rain = 0
KBY1 202341Z 19011KT 37/09 A3001 RMK A01 T03710089  RH  018%=      5-min Rain = 0
KBY1 202342Z 20010KT 37/09 A3001 RMK A01 T03700090  RH  018%=      5-min Rain = 0
KBY1 202343Z 20013KT 37/09 A3001 RMK A01 T03700089  RH  018%=      5-min Rain = 0
KBY1 202344Z 20015KT 37/09 A3001 RMK A01 T03700091  RH  018%=      5-min Rain = 0
KBY1 202345Z 20013KT 37/09 A3001 RMK A01 T03690090  RH  018%=      5-min Rain = 0
KBY1 202346Z 19010KT 37/09 A3001 RMK A01 T03680094  RH  019%=      5-min Rain = 0
KBY1 202347Z 19011KT 37/10 A3001 RMK A01 T03680098  RH  020%=      5-min Rain = 0
KBY1 202348Z 21011KT 37/09 A3001 RMK A01 T03680094  RH  019%=      5-min Rain = 0
KBY1 202349Z 20011KT 37/09 A3001 RMK A01 T03690087  RH  018%=      5-min Rain = 0
KBY1 202350Z 20016KT 37/09 A3001 RMK A01 T03680085  RH  018%=      5-min Rain = 0
KBY1 202351Z 19013KT 37/08 A3001 RMK A01 T03680084  RH  018%=      5-min Rain = 0
KBY1 202352Z 19015KT 37/09 A3001 RMK A01 T03680086  RH  018%=      5-min Rain = 0
KBY1 202353Z 19015G20KT 37/08 A3001 RMK A01 T03670082  RH  018%=      5-min Rain = 0
KBY1 202354Z 19011KT 37/08 A3001 RMK A01 T03670084  RH  018%=      5-min Rain = 0
KBY1 202355Z 19009KT 37/09 A3001 RMK A01 T03670085  RH  018%=      5-min Rain = 0
KBY1 202356Z 18011G18KT 37/09 A3001 RMK A01 T03670088  RH  018%=      5-min Rain = 0
KBY1 202357Z 19014KT 37/08 A3001 RMK A01 T03670083  RH  018%=      5-min Rain = 0
KBY1 202358Z 20011KT 37/08 A3002 RMK A01 T03660084  RH  018%=      5-min Rain = 0
KBY1 202359Z 19009KT 37/09 A3002 RMK A01 T03660088  RH  018%=      5-min Rain = 0
KBY1 210000Z 20010KT 37/09 A3002 RMK A01 T03660090  RH  019%=      5-min Rain = 0
KBY1 210001Z 21011KT 37/09 A3002 RMK A01 T03660091  RH  019%=      5-min Rain = 0
KBY1 210002Z 21011KT 37/09 A3001 RMK A01 T03670089  RH  019%=      5-min Rain = 0
KBY1 210003Z 21012KT 37/09 A3001 RMK A01 T03660087  RH  018%=      5-min Rain = 0
KBY1 210004Z 20010G15KT 37/09 A3002 RMK A01 T03660085  RH  018%=      5-min Rain = 0
KBY1 210005Z 20010KT 37/09 A3002 RMK A01 T03660087  RH  018%=      5-min Rain = 0
KBY1 210006Z 20010KT 37/09 A3002 RMK A01 T03660090  RH  019%=      5-min Rain = 0
KBY1 210007Z 20010KT 37/09 A3002 RMK A01 T03660092  RH  019%=      5-min Rain = 0
KBY1 210008Z 19012KT 37/09 A3002 RMK A01 T03650094  RH  019%=      5-min Rain = 0
KBY1 210009Z 20013KT 36/10 A3002 RMK A01 T03640095  RH  019%=      5-min Rain = 0
KBY1 210010Z 20012G17KT 36/10 A3002 RMK A01 T03620096  RH  020%=      5-min Rain = 0
KBY1 210011Z 19013G19KT 36/10 A3002 RMK A01 T03610097  RH  020%=      5-min Rain = 0
KBY1 210012Z 19013KT 36/10 A3002 RMK A01 T03590096  RH  020%=      5-min Rain = 0
KBY1 210013Z 19012G17KT 36/10 A3002 RMK A01 T03580096  RH  020%=      5-min Rain = 0
KBY1 210014Z 19012KT 36/10 A3002 RMK A01 T03560097  RH  021%=      5-min Rain = 0
KBY1 210015Z 20012KT 36/10 A3002 RMK A01 T03550095  RH  021%=      5-min Rain = 0
KBY1 210016Z 19012KT 35/09 A3002 RMK A01 T03530092  RH  020%=      5-min Rain = 0
KBY1 210017Z 19012KT 35/09 A3002 RMK A01 T03520093  RH  020%=      5-min Rain = 0
KBY1 210018Z 19011KT 35/09 A3002 RMK A01 T03520092  RH  020%=      5-min Rain = 0
KBY1 210019Z 20011KT 35/09 A3002 RMK A01 T03510094  RH  021%=      5-min Rain = 0
KBY1 210020Z 19008G13KT 35/10 A3002 RMK A01 T03500096  RH  021%=      5-min Rain = 0
KBY1 210021Z 20009KT 35/10 A3002 RMK A01 T03500098  RH  022%=      5-min Rain = 0
KBY1 210022Z 20010KT 35/10 A3002 RMK A01 T03490098  RH  022%=      5-min Rain = 0
KBY1 210023Z 20011KT 35/10 A3002 RMK A01 T03490100  RH  022%=      5-min Rain = 0
KBY1 210024Z 19011KT 35/10 A3002 RMK A01 T03490101  RH  022%=      5-min Rain = 0
KBY1 210025Z 19010KT 35/10 A3002 RMK A01 T03490101  RH  022%=      5-min Rain = 0
KBY1 210026Z 18009KT 35/10 A3002 RMK A01 T03490103  RH  022%=      5-min Rain = 0
KBY1 210027Z 19009KT 35/10 A3002 RMK A01 T03490103  RH  022%=      5-min Rain = 0
KBY1 210028Z 18010KT 35/10 A3002 RMK A01 T03490100  RH  022%=      5-min Rain = 0
KBY1 210029Z 19013KT 35/10 A3001 RMK A01 T03490095  RH  021%=      5-min Rain = 0
KBY1 210030Z 19010KT 35/09 A3001 RMK A01 T03490093  RH  021%=      5-min Rain = 0
KBY1 210031Z 19012KT 35/09 A3001 RMK A01 T03500094  RH  021%=      5-min Rain = 0
KBY1 210032Z 19010KT 35/09 A3001 RMK A01 T03500093  RH  021%=      5-min Rain = 0
KBY1 210033Z 18009KT 35/09 A3001 RMK A01 T03500094  RH  021%=      5-min Rain = 0
KBY1 210034Z 18010KT 35/09 A3001 RMK A01 T03510094  RH  021%=      5-min Rain = 0
KBY1 210035Z 19013KT 35/09 A3001 RMK A01 T03500091  RH  021%=      5-min Rain = 0
KBY1 210036Z 19011KT 35/09 A3001 RMK A01 T03500089  RH  020%=      5-min Rain = 0
KBY1 210037Z 19011KT 35/09 A3001 RMK A01 T03510091  RH  020%=      5-min Rain = 0
KBY1 210038Z 18011KT 35/09 A3001 RMK A01 T03510090  RH  020%=      5-min Rain = 0
KBY1 210039Z 18010KT 35/09 A3001 RMK A01 T03510091  RH  020%=      5-min Rain = 0
KBY1 210040Z 19009KT 35/09 A3001 RMK A01 T03500091  RH  020%=      5-min Rain = 0
KBY1 210041Z 18007KT 35/09 A3001 RMK A01 T03500094  RH  021%=      5-min Rain = 0
KBY1 210042Z 17008KT 35/10 A3001 RMK A01 T03480095  RH  021%=      5-min Rain = 0
KBY1 210043Z 18007KT 35/10 A3001 RMK A01 T03470095  RH  021%=      5-min Rain = 0
KBY1 210044Z 18007KT 35/10 A3001 RMK A01 T03460097  RH  022%=      5-min Rain = 0
KBY1 210045Z 18011KT 35/09 A3001 RMK A01 T03460092  RH  021%=      5-min Rain = 0
KBY1 210046Z 18009KT 35/09 A3001 RMK A01 T03460091  RH  021%=      5-min Rain = 0
KBY1 210047Z 18007KT 35/09 A3001 RMK A01 T03460091  RH  021%=      5-min Rain = 0
KBY1 210048Z 18009KT 35/09 A3001 RMK A01 T03460092  RH  021%=      5-min Rain = 0
KBY1 210049Z 18010KT 35/09 A3001 RMK A01 T03460090  RH  021%=      5-min Rain = 0
KBY1 210050Z 18010KT 35/09 A3001 RMK A01 T03460088  RH  021%=      5-min Rain = 0
KBY1 210051Z 19008KT 35/09 A3001 RMK A01 T03460089  RH  021%=      5-min Rain = 0
KBY1 210052Z 18007KT 35/09 A3001 RMK A01 T03460091  RH  021%=      5-min Rain = 0
KBY1 210053Z 18009KT 35/09 A3001 RMK A01 T03450091  RH  021%=      5-min Rain = 0
KBY1 210054Z 17008KT 35/09 A3001 RMK A01 T03450091  RH  021%=      5-min Rain = 0
KBY1 210055Z 18009KT 35/09 A3001 RMK A01 T03450090  RH  021%=      5-min Rain = 0
KBY1 210056Z 18009KT 34/09 A3001 RMK A01 T03440092  RH  021%=      5-min Rain = 0
KBY1 210057Z 19008KT 34/09 A3001 RMK A01 T03440093  RH  021%=      5-min Rain = 0
KBY1 210058Z 18007KT 34/09 A3001 RMK A01 T03430094  RH  022%=      5-min Rain = 0
KBY1 210059Z 18009KT 34/10 A3001 RMK A01 T03420095  RH  022%=      5-min Rain = 0
KBY1 210100Z 18009KT 34/10 A3001 RMK A01 T03420095  RH  022%=      5-min Rain = 0
KBY1 210101Z 18010KT 34/10 A3001 RMK A01 T03420096  RH  022%=      5-min Rain = 0
KBY1 210102Z 18008KT 34/10 A3001 RMK A01 T03420096  RH  022%=      5-min Rain = 0
KBY1 210103Z 19008G13KT 34/10 A3001 RMK A01 T03420099  RH  023%=      5-min Rain = 0
KBY1 210104Z 19009KT 34/10 A3001 RMK A01 T03410097  RH  023%=      5-min Rain = 0
KBY1 210105Z 19008KT 34/10 A3001 RMK A01 T03400099  RH  023%=      5-min Rain = 0
KBY1 210106Z 18009KT 34/10 A3001 RMK A01 T03400098  RH  023%=      5-min Rain = 0
KBY1 210107Z 18007KT 34/10 A3001 RMK A01 T03390099  RH  023%=      5-min Rain = 0
KBY1 210108Z 18007KT 34/10 A3001 RMK A01 T03390100  RH  023%=      5-min Rain = 0
KBY1 210109Z 19006KT 34/10 A3001 RMK A01 T03380100  RH  023%=      5-min Rain = 0
KBY1 210110Z 18006KT 34/10 A3001 RMK A01 T03370102  RH  024%=      5-min Rain = 0
KBY1 210111Z 18006KT 34/10 A3001 RMK A01 T03350102  RH  024%=      5-min Rain = 0
KBY1 210112Z 18006KT 33/10 A3001 RMK A01 T03340103  RH  024%=      5-min Rain = 0
KBY1 210113Z 19007KT 33/10 A3001 RMK A01 T03330103  RH  024%=      5-min Rain = 0
KBY1 210114Z 18007KT 33/11 A3001 RMK A01 T03330105  RH  025%=      5-min Rain = 0
KBY1 210115Z 18006KT 33/11 A3001 RMK A01 T03320105  RH  025%=      5-min Rain = 0
KBY1 210116Z 17006KT 33/11 A3001 RMK A01 T03320107  RH  025%=      5-min Rain = 0
KBY1 210117Z 18006KT 33/11 A3001 RMK A01 T03310108  RH  026%=      5-min Rain = 0
KBY1 210118Z 17007KT 33/11 A3001 RMK A01 T03310109  RH  026%=      5-min Rain = 0
KBY1 210119Z 17008KT 33/11 A3001 RMK A01 T03310110  RH  026%=      5-min Rain = 0
KBY1 210120Z 18008KT 33/11 A3001 RMK A01 T03300110  RH  026%=      5-min Rain = 0
KBY1 210121Z 17007KT 33/11 A3002 RMK A01 T03310110  RH  026%=      5-min Rain = 0
KBY1 210122Z 18006KT 33/11 A3002 RMK A01 T03310111  RH  026%=      5-min Rain = 0
KBY1 210123Z 18007KT 33/11 A3002 RMK A01 T03300112  RH  026%=      5-min Rain = 0
KBY1 210124Z 18007KT 33/11 A3002 RMK A01 T03300112  RH  026%=      5-min Rain = 0
KBY1 210125Z 18007KT 33/11 A3002 RMK A01 T03300112  RH  026%=      5-min Rain = 0
KBY1 210126Z 19007KT 33/11 A3002 RMK A01 T03300113  RH  027%=      5-min Rain = 0
KBY1 210127Z 18008KT 33/11 A3002 RMK A01 T03290113  RH  027%=      5-min Rain = 0
KBY1 210128Z 19007KT 33/11 A3002 RMK A01 T03280113  RH  027%=      5-min Rain = 0
KBY1 210129Z 18006KT 33/12 A3002 RMK A01 T03280115  RH  027%=      5-min Rain = 0
KBY1 210130Z 18007KT 33/12 A3002 RMK A01 T03270115  RH  027%=      5-min Rain = 0
KBY1 210131Z 18007KT 33/12 A3002 RMK A01 T03260115  RH  028%=      5-min Rain = 0
KBY1 210132Z 18007KT 33/12 A3002 RMK A01 T03250115  RH  028%=      5-min Rain = 0
KBY1 210133Z 18007KT 33/12 A3002 RMK A01 T03250116  RH  028%=      5-min Rain = 0
KBY1 210134Z 18006KT 33/12 A3002 RMK A01 T03250117  RH  028%=      5-min Rain = 0
KBY1 210135Z 18005KT 32/12 A3002 RMK A01 T03240118  RH  028%=      5-min Rain = 0
KBY1 210136Z 18005KT 32/12 A3002 RMK A01 T03230119  RH  029%=      5-min Rain = 0
KBY1 210137Z 18006KT 32/12 A3002 RMK A01 T03220118  RH  029%=      5-min Rain = 0
KBY1 210138Z 17006KT 32/12 A3002 RMK A01 T03220120  RH  029%=      5-min Rain = 0
KBY1 210139Z 18007KT 32/12 A3002 RMK A01 T03210120  RH  029%=      5-min Rain = 0
KBY1 210140Z 18006KT 32/12 A3002 RMK A01 T03210120  RH  029%=      5-min Rain = 0
KBY1 210141Z 18006KT 32/12 A3002 RMK A01 T03210121  RH  029%=      5-min Rain = 0
KBY1 210142Z 18007KT 32/12 A3002 RMK A01 T03210121  RH  030%=      5-min Rain = 0
KBY1 210143Z 18006KT 32/12 A3002 RMK A01 T03210122  RH  030%=      5-min Rain = 0
KBY1 210144Z 18006KT 32/12 A3002 RMK A01 T03210122  RH  030%=      5-min Rain = 0
KBY1 210145Z 17006KT 32/12 A3002 RMK A01 T03200122  RH  030%=      5-min Rain = 0
KBY1 210146Z 18005KT 32/12 A3002 RMK A01 T03200122  RH  030%=      5-min Rain = 0
KBY1 210147Z 17007KT 32/12 A3002 RMK A01 T03190124  RH  030%=      5-min Rain = 0
KBY1 210148Z 18006KT 32/12 A3002 RMK A01 T03190124  RH  030%=      5-min Rain = 0
KBY1 210149Z 18007KT 32/12 A3002 RMK A01 T03190124  RH  030%=      5-min Rain = 0
KBY1 210150Z 18007KT 32/12 A3002 RMK A01 T03190124  RH  030%=      5-min Rain = 0
KBY1 210151Z 18008KT 32/12 A3002 RMK A01 T03200124  RH  030%=      5-min Rain = 0
KBY1 210152Z 18007KT 32/13 A3002 RMK A01 T03210125  RH  030%=      5-min Rain = 0
KBY1 210153Z 18006KT 32/13 A3002 RMK A01 T03210125  RH  030%=      5-min Rain = 0
KBY1 210154Z 17005KT 32/13 A3002 RMK A01 T03210127  RH  031%=      5-min Rain = 0
KBY1 210155Z 18006KT 32/13 A3002 RMK A01 T03200127  RH  031%=      5-min Rain = 0
KBY1 210156Z 18006KT 32/13 A3002 RMK A01 T03190126  RH  031%=      5-min Rain = 0
KBY1 210157Z 17006KT 32/13 A3002 RMK A01 T03200127  RH  031%=      5-min Rain = 0
KBY1 210158Z 18008KT 32/13 A3002 RMK A01 T03200126  RH  031%=      5-min Rain = 0
KBY1 210159Z 18007KT 32/13 A3002 RMK A01 T03210128  RH  031%=      5-min Rain = 0
KBY1 210200Z 18008G13KT 32/13 A3002 RMK A01 T03210127  RH  031%=      5-min Rain = 0
KBY1 210201Z 18010KT 32/13 A3002 RMK A01 T03220127  RH  031%=      5-min Rain = 0
KBY1 210202Z 19008KT 32/13 A3002 RMK A01 T03230127  RH  030%=      5-min Rain = 0
KBY1 210203Z 18006KT 32/13 A3002 RMK A01 T03240128  RH  030%=      5-min Rain = 0
KBY1 210204Z 19008KT 32/13 A3002 RMK A01 T03240128  RH  031%=      5-min Rain = 0
KBY1 210205Z 18007KT 32/13 A3002 RMK A01 T03230128  RH  030%=      5-min Rain = 0
KBY1 210206Z 19009KT 32/13 A3002 RMK A01 T03230127  RH  030%=      5-min Rain = 0
KBY1 210207Z 18008KT 32/13 A3002 RMK A01 T03240128  RH  030%=      5-min Rain = 0
KBY1 210208Z 18008KT 32/13 A3002 RMK A01 T03240128  RH  030%=      5-min Rain = 0
KBY1 210209Z 18009KT 32/13 A3002 RMK A01 T03240129  RH  031%=      5-min Rain = 0
KBY1 210210Z 18009KT 32/13 A3003 RMK A01 T03230128  RH  031%=      5-min Rain = 0
KBY1 210211Z 19008KT 32/13 A3003 RMK A01 T03240129  RH  031%=      5-min Rain = 0
KBY1 210212Z 19007KT 32/13 A3003 RMK A01 T03240129  RH  031%=      5-min Rain = 0
KBY1 210213Z 19009KT 32/13 A3003 RMK A01 T03240129  RH  031%=      5-min Rain = 0
KBY1 210214Z 19007KT 32/13 A3003 RMK A01 T03240129  RH  031%=      5-min Rain = 0
KBY1 210215Z 19008KT 32/13 A3003 RMK A01 T03230129  RH  031%=      5-min Rain = 0
KBY1 210216Z 19007KT 32/13 A3003 RMK A01 T03230130  RH  031%=      5-min Rain = 0
KBY1 210217Z 19008KT 32/13 A3003 RMK A01 T03230129  RH  031%=      5-min Rain = 0
KBY1 210218Z 19007KT 32/13 A3003 RMK A01 T03230129  RH  031%=      5-min Rain = 0
KBY1 210219Z 19007KT 32/13 A3003 RMK A01 T03230130  RH  031%=      5-min Rain = 0
KBY1 210220Z 19009KT 32/13 A3003 RMK A01 T03230129  RH  031%=      5-min Rain = 0
KBY1 210221Z 19008KT 32/13 A3003 RMK A01 T03230129  RH  031%=      5-min Rain = 0
KBY1 210222Z 19007KT 32/13 A3003 RMK A01 T03230130  RH  031%=      5-min Rain = 0
KBY1 210223Z 19008KT 32/13 A3003 RMK A01 T03230130  RH  031%=      5-min Rain = 0
KBY1 210224Z 20007KT 32/13 A3003 RMK A01 T03230130  RH  031%=      5-min Rain = 0
KBY1 210225Z 21007KT 32/13 A3004 RMK A01 T03230130  RH  031%=      5-min Rain = 0
KBY1 210226Z 22007KT 32/13 A3004 RMK A01 T03230132  RH  031%=      5-min Rain = 0
KBY1 210227Z 23007KT 32/13 A3004 RMK A01 T03220132  RH  031%=      5-min Rain = 0
KBY1 210228Z 25008KT 32/13 A3004 RMK A01 T03220132  RH  032%=      5-min Rain = 0
KBY1 210229Z 26010KT 32/13 A3005 RMK A01 T03220133  RH  032%=      5-min Rain = 0
KBY1 210230Z 27009KT 32/13 A3005 RMK A01 T03220132  RH  032%=      5-min Rain = 0
KBY1 210231Z 27010KT 32/13 A3005 RMK A01 T03200131  RH  032%=      5-min Rain = 0
KBY1 210232Z 26008KT 32/13 A3005 RMK A01 T03190132  RH  032%=      5-min Rain = 0
KBY1 210233Z 25007KT 32/13 A3005 RMK A01 T03180131  RH  032%=      5-min Rain = 0
KBY1 210234Z 24007KT 32/13 A3005 RMK A01 T03180129  RH  032%=      5-min Rain = 0
KBY1 210235Z 23006KT 32/13 A3005 RMK A01 T03180128  RH  031%=      5-min Rain = 0
KBY1 210236Z 24005KT 32/13 A3005 RMK A01 T03170128  RH  031%=      5-min Rain = 0
KBY1 210237Z 24006KT 32/13 A3005 RMK A01 T03170128  RH  032%=      5-min Rain = 0
KBY1 210238Z 24005KT 32/13 A3005 RMK A01 T03160128  RH  032%=      5-min Rain = 0
KBY1 210239Z 24006KT 32/13 A3005 RMK A01 T03150126  RH  031%=      5-min Rain = 0
KBY1 210240Z 23005KT 32/13 A3006 RMK A01 T03150125  RH  031%=      5-min Rain = 0
KBY1 210241Z 22006KT 32/12 A3006 RMK A01 T03150121  RH  031%=      5-min Rain = 0
KBY1 210242Z 23004KT 31/12 A3006 RMK A01 T03140121  RH  031%=      5-min Rain = 0
KBY1 210243Z 24006KT 32/12 A3006 RMK A01 T03150120  RH  030%=      5-min Rain = 0
KBY1 210244Z 26007KT 31/12 A3006 RMK A01 T03140118  RH  030%=      5-min Rain = 0
KBY1 210245Z 25008KT 32/11 A3006 RMK A01 T03150113  RH  029%=      5-min Rain = 0
KBY1 210246Z 25008G13KT 32/11 A3006 RMK A01 T03160108  RH  028%=      5-min Rain = 0
KBY1 210247Z 25010KT 32/11 A3007 RMK A01 T03180107  RH  027%=      5-min Rain = 0
KBY1 210248Z 26010KT 32/10 A3007 RMK A01 T03200103  RH  026%=      5-min Rain = 0
KBY1 210249Z 26010KT 32/10 A3007 RMK A01 T03210101  RH  026%=      5-min Rain = 0
KBY1 210250Z 25009KT 32/10 A3007 RMK A01 T03220101  RH  026%=      5-min Rain = 0
KBY1 210251Z 26008G13KT 32/10 A3007 RMK A01 T03220102  RH  026%=      5-min Rain = 0
KBY1 210252Z 27012KT 32/11 A3007 RMK A01 T03210112  RH  028%=      5-min Rain = 0
KBY1 210253Z 27012KT 32/12 A3007 RMK A01 T03160123  RH  031%=      5-min Rain = 0
KBY1 210254Z 27011G17KT 31/13 A3007 RMK A01 T03120127  RH  032%=      5-min Rain = 0
KBY1 210255Z 26009G15KT 31/13 A3008 RMK A01 T03090128  RH  033%=      5-min Rain = 0
KBY1 210256Z 26009KT 31/13 A3008 RMK A01 T03080132  RH  034%=      5-min Rain = 0
KBY1 210257Z 26010KT 31/14 A3008 RMK A01 T03070136  RH  035%=      5-min Rain = 0
KBY1 210258Z 26009KT 31/14 A3008 RMK A01 T03070135  RH  035%=      5-min Rain = 0
KBY1 210259Z 26008KT 31/14 A3008 RMK A01 T03080139  RH  036%=      5-min Rain = 0
KBY1 210300Z 26007KT 31/14 A3008 RMK A01 T03070140  RH  036%=      5-min Rain = 0
KBY1 210301Z 26007KT 31/14 A3008 RMK A01 T03060144  RH  037%=      5-min Rain = 0
KBY1 210302Z 24007KT 30/15 A3008 RMK A01 T03020145  RH  038%=      5-min Rain = 0
KBY1 210303Z 23006KT 30/15 A3008 RMK A01 T02980153  RH  042%=      5-min Rain = 0
KBY1 210304Z 24007KT 29/15 A3008 RMK A01 T02910151  RH  043%=      5-min Rain = 0
KBY1 210305Z 25005KT 29/15 A3009 RMK A01 T02870152  RH  044%=      5-min Rain = 0
KBY1 210306Z 26005KT 29/15 A3009 RMK A01 T02850150  RH  044%=      5-min Rain = 0
KBY1 210307Z 27005KT 28/14 A3009 RMK A01 T02840143  RH  042%=      5-min Rain = 0
KBY1 210308Z 29007KT 29/14 A3009 RMK A01 T02850136  RH  040%=      5-min Rain = 0
KBY1 210309Z 29005KT 29/14 A3009 RMK A01 T02870135  RH  039%=      5-min Rain = 0
KBY1 210310Z 29007KT 29/13 A3009 RMK A01 T02890129  RH  037%=      5-min Rain = 0
KBY1 210311Z 28006KT 29/13 A3009 RMK A01 T02920125  RH  036%=      5-min Rain = 0
KBY1 210312Z 28005KT 29/13 A3009 RMK A01 T02940125  RH  035%=      5-min Rain = 0
KBY1 210313Z 26005KT 30/13 A3009 RMK A01 T02950129  RH  036%=      5-min Rain = 0
KBY1 210314Z 23007KT 29/14 A3009 RMK A01 T02930143  RH  040%=      5-min Rain = 0
KBY1 210315Z 23005KT 29/15 A3009 RMK A01 T02870152  RH  044%=      5-min Rain = 0
KBY1 210316Z 25004KT 28/16 A3009 RMK A01 T02810156  RH  047%=      5-min Rain = 0
KBY1 210317Z 25003KT 28/15 A3009 RMK A01 T02770151  RH  046%=      5-min Rain = 0
KBY1 210318Z 24003KT 28/16 A3009 RMK A01 T02760156  RH  048%=      5-min Rain = 0
KBY1 210319Z 24003KT 28/16 A3009 RMK A01 T02750156  RH  048%=      5-min Rain = 0
KBY1 210320Z 24002KT 27/15 A3009 RMK A01 T02730153  RH  048%=      5-min Rain = 0
KBY1 210321Z 24002KT 27/15 A3009 RMK A01 T02730151  RH  047%=      5-min Rain = 0
KBY1 210322Z 23003KT 27/15 A301 RMK A01 T02730150  RH  047%=      5-min Rain = 0
KBY1 210323Z 22003KT 27/15 A301 RMK A01 T02730153  RH  048%=      5-min Rain = 0
KBY1 210324Z 21003KT 27/16 A301 RMK A01 T02740158  RH  049%=      5-min Rain = 0
KBY1 210325Z 22004KT 27/17 A301 RMK A01 T02720168  RH  053%=      5-min Rain = 0
KBY1 210326Z 23005KT 27/17 A301 RMK A01 T02700167  RH  053%=      5-min Rain = 0
KBY1 210327Z 24006KT 27/17 A301 RMK A01 T02680165  RH  053%=      5-min Rain = 0
KBY1 210328Z 24007KT 27/17 A301 RMK A01 T02670165  RH  053%=      5-min Rain = 0
KBY1 210329Z 26009KT 27/16 A3011 RMK A01 T02660157  RH  051%=      5-min Rain = 0
KBY1 210330Z 27007KT 27/15 A301 RMK A01 T02650153  RH  050%=      5-min Rain = 0
KBY1 210331Z 26004KT 26/16 A301 RMK A01 T02640157  RH  052%=      5-min Rain = 0.01
KBY1 210332Z 26002KT 26/16 A301 RMK A01 T02620159  RH  053%=      5-min Rain = 0
KBY1 210333Z 27001KT 26/15 A301 RMK A01 T02600151  RH  051%=      5-min Rain = 0.01
KBY1 210334Z 18003KT 26/15 A301 RMK A01 T02600149  RH  050%=      5-min Rain = 0
KBY1 210335Z 18008KT 26/17 A301 RMK A01 T02590165  RH  056%=      5-min Rain = 0
KBY1 210336Z 17005KT 25/15 A301 RMK A01 T02530154  RH  054%=      5-min Rain = 0
KBY1 210337Z 16003KT 25/14 A301 RMK A01 T02520144  RH  051%=      5-min Rain = 0
KBY1 210338Z 15005KT 26/14 A3009 RMK A01 T02550144  RH  050%=      5-min Rain = 0
KBY1 210339Z 12007KT 26/17 A3009 RMK A01 T02560167  RH  058%=      5-min Rain = 0
KBY1 210340Z 13007KT 25/17 A3008 RMK A01 T02500174  RH  063%=      5-min Rain = 0.01
KBY1 210341Z 12005KT 25/17 A3008 RMK A01 T02460170  RH  063%=      5-min Rain = 0
KBY1 210342Z 24003KT 24/18 A3008 RMK A01 T02440179  RH  067%=      5-min Rain = 0
KBY1 210343Z 26002KT 24/18 A3009 RMK A01 T02400177  RH  068%=      5-min Rain = 0
KBY1 210344Z 22002KT 24/17 A3008 RMK A01 T02380169  RH  065%=      5-min Rain = 0
KBY1 210345Z 23003KT 24/17 A3008 RMK A01 T02400167  RH  064%=      5-min Rain = 0
KBY1 210346Z 22003KT 24/16 A3008 RMK A01 T02430163  RH  061%=      5-min Rain = 0
KBY1 210347Z 21002KT 25/16 A3008 RMK A01 T02450163  RH  060%=      5-min Rain = 0
KBY1 210348Z 27003KT 25/17 A3008 RMK A01 T02470166  RH  060%=      5-min Rain = 0
KBY1 210349Z 25004KT 25/17 A3008 RMK A01 T02480165  RH  060%=      5-min Rain = 0
KBY1 210350Z 22003KT 25/15 A3007 RMK A01 T02510147  RH  052%=      5-min Rain = 0
KBY1 210351Z 15003KT 26/15 A3007 RMK A01 T02600151  RH  051%=      5-min Rain = 0
KBY1 210352Z 24002KT 27/16 A3007 RMK A01 T02650155  RH  051%=      5-min Rain = 0
KBY1 210353Z 23002KT 27/15 A3007 RMK A01 T02670145  RH  047%=      5-min Rain = 0
KBY1 210354Z 23002KT 27/16 A3007 RMK A01 T02700156  RH  050%=      5-min Rain = 0
KBY1 210355Z 23001KT 27/15 A3006 RMK A01 T02700151  RH  048%=      5-min Rain = 0
KBY1 210356Z 26001KT 27/15 A3006 RMK A01 T02700154  RH  049%=      5-min Rain = 0
KBY1 210357Z 24001KT 27/16 A3006 RMK A01 T02700158  RH  050%=      5-min Rain = 0
KBY1 210358Z 18005KT 27/18 A3007 RMK A01 T02680181  RH  059%=      5-min Rain = 0
KBY1 210359Z 18007KT 26/18 A3007 RMK A01 T02600177  RH  060%=      5-min Rain = 0
KBY1 210400Z 18005KT 26/16 A3007 RMK A01 T02550161  RH  056%=      5-min Rain = 0
KBY1 210401Z 18005KT 26/15 A3007 RMK A01 T02560153  RH  053%=      5-min Rain = 0
KBY1 210402Z 19004KT 26/16 A3007 RMK A01 T02580162  RH  055%=      5-min Rain = 0
KBY1 210403Z 23005KT 26/17 A3007 RMK A01 T02570167  RH  058%=      5-min Rain = 0
KBY1 210404Z 22006KT 25/17 A3006 RMK A01 T02540167  RH  059%=      5-min Rain = 0
KBY1 210405Z 24005KT 25/17 A3006 RMK A01 T02530165  RH  058%=      5-min Rain = 0
KBY1 210406Z 24005KT 25/16 A3006 RMK A01 T02530164  RH  058%=      5-min Rain = 0
KBY1 210407Z 24005KT 25/16 A3006 RMK A01 T02540163  RH  057%=      5-min Rain = 0
KBY1 210408Z 25006KT 26/16 A3006 RMK A01 T02550163  RH  057%=      5-min Rain = 0
KBY1 210409Z 25007KT 26/16 A3006 RMK A01 T02550164  RH  057%=      5-min Rain = 0
KBY1 210410Z 25007KT 26/16 A3006 RMK A01 T02560156  RH  054%=      5-min Rain = 0
KBY1 210411Z 27007KT 26/15 A3006 RMK A01 T02590153  RH  052%=      5-min Rain = 0
KBY1 210412Z 29006KT 26/15 A3006 RMK A01 T02610152  RH  051%=      5-min Rain = 0
KBY1 210413Z 28006KT 26/16 A3006 RMK A01 T02630158  RH  052%=      5-min Rain = 0
KBY1 210414Z 25006KT 26/16 A3006 RMK A01 T02620159  RH  053%=      5-min Rain = 0
KBY1 210415Z 23005KT 26/17 A3006 RMK A01 T02600169  RH  057%=      5-min Rain = 0
KBY1 210416Z 23005KT 26/17 A3006 RMK A01 T02550168  RH  059%=      5-min Rain = 0
KBY1 210417Z 24004KT 25/17 A3006 RMK A01 T02520169  RH  060%=      5-min Rain = 0
KBY1 210418Z 24004KT 25/17 A3006 RMK A01 T02500170  RH  061%=      5-min Rain = 0
KBY1 210419Z 23005KT 25/17 A3006 RMK A01 T02480167  RH  060%=      5-min Rain = 0
KBY1 210420Z 23005KT 25/16 A3006 RMK A01 T02490162  RH  058%=      5-min Rain = 0
KBY1 210421Z 22004KT 25/16 A3006 RMK A01 T02510161  RH  057%=      5-min Rain = 0
KBY1 210422Z 21004KT 25/16 A3006 RMK A01 T02520163  RH  058%=      5-min Rain = 0
KBY1 210423Z 19004KT 25/17 A3006 RMK A01 T02530166  RH  059%=      5-min Rain = 0
KBY1 210424Z 21005KT 25/18 A3006 RMK A01 T02510175  RH  062%=      5-min Rain = 0
KBY1 210425Z 21005KT 25/16 A3006 RMK A01 T02490163  RH  059%=      5-min Rain = 0
KBY1 210426Z 25003KT 25/16 A3006 RMK A01 T02510158  RH  056%=      5-min Rain = 0
KBY1 210427Z 25003KT 25/16 A3006 RMK A01 T02540157  RH  055%=      5-min Rain = 0
KBY1 210428Z 24003KT 26/16 A3006 RMK A01 T02560161  RH  056%=      5-min Rain = 0
KBY1 210429Z 22004KT 26/16 A3006 RMK A01 T02560162  RH  056%=      5-min Rain = 0
KBY1 210430Z 23004KT 26/16 A3006 RMK A01 T02560163  RH  056%=      5-min Rain = 0
KBY1 210431Z 23003KT 26/16 A3006 RMK A01 T02550163  RH  057%=      5-min Rain = 0
KBY1 210432Z 23002KT 26/16 A3006 RMK A01 T02550161  RH  056%=      5-min Rain = 0
KBY1 210433Z 21002KT 26/16 A3006 RMK A01 T02550164  RH  057%=      5-min Rain = 0
KBY1 210434Z 23001KT 26/18 A3006 RMK A01 T02550179  RH  063%=      5-min Rain = 0
KBY1 210435Z 25001KT 26/18 A3006 RMK A01 T02550182  RH  064%=      5-min Rain = 0
KBY1 210436Z 27001KT 25/18 A3006 RMK A01 T02540175  RH  062%=      5-min Rain = 0
KBY1 210437Z 26001KT 25/16 A3006 RMK A01 T02540163  RH  057%=      5-min Rain = 0
KBY1 210438Z 24001KT 25/16 A3006 RMK A01 T02530162  RH  057%=      5-min Rain = 0
KBY1 210439Z 25001KT 25/17 A3006 RMK A01 T02540165  RH  058%=      5-min Rain = 0
KBY1 210440Z 26001KT 25/17 A3006 RMK A01 T02540166  RH  058%=      5-min Rain = 0
KBY1 210441Z 24001KT 25/17 A3006 RMK A01 T02540169  RH  059%=      5-min Rain = 0
KBY1 210442Z 23000KT 25/17 A3006 RMK A01 T02540173  RH  061%=      5-min Rain = 0
KBY1 210443Z 25001KT 25/17 A3006 RMK A01 T02540168  RH  059%=      5-min Rain = 0
KBY1 210444Z 25001KT 26/17 A3006 RMK A01 T02550167  RH  058%=      5-min Rain = 0
KBY1 210445Z 00000KT 26/17 A3006 RMK A01 T02550169  RH  059%=      5-min Rain = 0
KBY1 210446Z 00000KT 25/17 A3006 RMK A01 T02540169  RH  059%=      5-min Rain = 0
KBY1 210447Z 26001KT 25/17 A3006 RMK A01 T02540165  RH  058%=      5-min Rain = 0
KBY1 210448Z 23003KT 25/16 A3006 RMK A01 T02540158  RH  055%=      5-min Rain = 0
KBY1 210449Z 23003KT 26/16 A3006 RMK A01 T02550160  RH  056%=      5-min Rain = 0
KBY1 210450Z 20003KT 26/16 A3006 RMK A01 T02560160  RH  055%=      5-min Rain = 0
KBY1 210451Z 19003KT 26/16 A3006 RMK A01 T02570163  RH  056%=      5-min Rain = 0
KBY1 210452Z 17002KT 26/17 A3006 RMK A01 T02560174  RH  061%=      5-min Rain = 0
KBY1 210453Z 14001KT 25/17 A3006 RMK A01 T02540166  RH  058%=      5-min Rain = 0
KBY1 210454Z 02001KT 25/16 A3006 RMK A01 T02530163  RH  057%=      5-min Rain = 0
KBY1 210455Z 02000KT 25/17 A3006 RMK A01 T02530173  RH  061%=      5-min Rain = 0
KBY1 210456Z 03001KT 25/18 A3006 RMK A01 T02530179  RH  064%=      5-min Rain = 0
KBY1 210457Z 04000KT 25/18 A3006 RMK A01 T02520180  RH  064%=      5-min Rain = 0
KBY1 210458Z 05000KT 25/18 A3006 RMK A01 T02510178  RH  064%=      5-min Rain = 0
KBY1 210459Z 00000KT 25/17 A3006 RMK A01 T02500173  RH  062%=      5-min Rain = 0

Page generated in 0.1477 seconds.